| State | Missouri | Latest | Unknown (241 cfs) | |
| River | Huzzah Creek | Rating | Observed | Estimated |
| Updated | 2026-05-10 16:30 (56 minutes ago) | Flood - The river is flooding. Obstacles can be treacherous or deadly. The river should be avoided at this stage for casual trips and definitely for the inexperienced. Trips should be attempted only with protective gear and equipment.Flood | (none) | (none) |
| Discharge | 241 cfs (median: 438 cfs) | High - The river is high and potentially dangerous, especially for the young and / or inexperienced. Normal stream obstacles are sometimes difficult to navigate. Extended distances can be attempted, but canoe travel may not be advisable.High | (none) | (none) |
| Height | 4.02 feet | Good - Conditions are ideal for a canoe or kayak. Boats typically will drag on fewer than one-quarter of riffles, if at all, and portages are unnecessary or rare. Normal float lengths can be attempted without a problem.Good | (none) | (none) |
| Trend | Steady (falling over 24 hours) | Low - River is low but can still be floated. Some riffles are okay but most come with significant dragging and might need a portage. Float lengths should be reduced to accommodate low flow, dragging, and portages.Low | (none) | (none) |
| USGS | USGS Site ( Duck Duck Go Maps) | Poor - River is too low to float comfortably. Most or all riffles will drag or must be portaged and some obstacles (such as slick shelf rock) cause undue problems. Avoid the river at this stage for casual paddling trips.Poor | (none) | (none) |
A total of 3 rows are displayed.
| Miles | 4.4 |
| Trips | 3 |
| People | 17 |
| Dates | 3 |
| Years | 2 |
| Months | 2 |
| Rows | 3 |
| Sources | 2 |
BLG - Bluegill
CCF - Channel Catfish
CP - Chain Pickerel
FWD - Freshwater Drum
GSF - Green Sunfish
KSB - Kentucky Spotted Bass
LMB - Largemouth Bass
LSF - Longear Sunfish
RB - Rock Bass / Goggle Eye
RSF - Redear Sunfish
RT - Rainbow Trout
SMB - Smallmouth Bass
WB - White Bass
WF - Whitefish
WL - WalleyeThe classic River Trips application is still available for use. It is updated with the new system using a data retrofit. It is no longer maintained. The original River Trips application is no longer updated (as of 1 Dec 2016) but can be checked for errors or for the condition of the data before it was converted to the new system.
| Observation | Height | Discharge | Maximum Discharge | Minimum Discharge | Mean Discharge | P05 | P10 | P20 | P25 | P50 (Median) | P75 | P80 | P90 | P95 |
|---|---|---|---|---|---|---|---|---|---|---|---|---|---|---|
| 2026-05-10 16:30 | 4.02 | 241 | 1420 (2009) | 93 (2012) | 490 | 93 | 118 | 228 | 284 | 438 | 640 | 656 | 1080 | 1420 |
| 2026-05-10 15:30 | 4.02 | 241 | 1420 (2009) | 93 (2012) | 490 | 93 | 118 | 228 | 284 | 438 | 640 | 656 | 1080 | 1420 |
| 2026-05-10 14:30 | 4.04 | 248 | 1420 (2009) | 93 (2012) | 490 | 93 | 118 | 228 | 284 | 438 | 640 | 656 | 1080 | 1420 |
| 2026-05-10 13:30 | 4.04 | 248 | 1420 (2009) | 93 (2012) | 490 | 93 | 118 | 228 | 284 | 438 | 640 | 656 | 1080 | 1420 |
| 2026-05-10 12:30 | 4.05 | 252 | 1420 (2009) | 93 (2012) | 490 | 93 | 118 | 228 | 284 | 438 | 640 | 656 | 1080 | 1420 |
| 2026-05-10 11:30 | 4.06 | 255 | 1420 (2009) | 93 (2012) | 490 | 93 | 118 | 228 | 284 | 438 | 640 | 656 | 1080 | 1420 |
| 2026-05-10 10:30 | 4.07 | 259 | 1420 (2009) | 93 (2012) | 490 | 93 | 118 | 228 | 284 | 438 | 640 | 656 | 1080 | 1420 |
| 2026-05-10 09:30 | 4.07 | 259 | 1420 (2009) | 93 (2012) | 490 | 93 | 118 | 228 | 284 | 438 | 640 | 656 | 1080 | 1420 |
| 2026-05-10 08:30 | 4.09 | 266 | 1420 (2009) | 93 (2012) | 490 | 93 | 118 | 228 | 284 | 438 | 640 | 656 | 1080 | 1420 |
| 2026-05-10 07:30 | 4.09 | 266 | 1420 (2009) | 93 (2012) | 490 | 93 | 118 | 228 | 284 | 438 | 640 | 656 | 1080 | 1420 |
| 2026-05-10 06:30 | 4.09 | 266 | 1420 (2009) | 93 (2012) | 490 | 93 | 118 | 228 | 284 | 438 | 640 | 656 | 1080 | 1420 |
| 2026-05-10 05:30 | 4.10 | 270 | 1420 (2009) | 93 (2012) | 490 | 93 | 118 | 228 | 284 | 438 | 640 | 656 | 1080 | 1420 |
| 2026-05-10 04:30 | 4.12 | 277 | 1420 (2009) | 93 (2012) | 490 | 93 | 118 | 228 | 284 | 438 | 640 | 656 | 1080 | 1420 |
| 2026-05-10 03:30 | 4.13 | 281 | 1420 (2009) | 93 (2012) | 490 | 93 | 118 | 228 | 284 | 438 | 640 | 656 | 1080 | 1420 |
| 2026-05-10 02:30 | 4.13 | 281 | 1420 (2009) | 93 (2012) | 490 | 93 | 118 | 228 | 284 | 438 | 640 | 656 | 1080 | 1420 |
| 2026-05-10 01:30 | 4.14 | 285 | 1420 (2009) | 93 (2012) | 490 | 93 | 118 | 228 | 284 | 438 | 640 | 656 | 1080 | 1420 |
| 2026-05-10 00:30 | 4.15 | 289 | 1420 (2009) | 93 (2012) | 490 | 93 | 118 | 228 | 284 | 438 | 640 | 656 | 1080 | 1420 |
| 2026-05-09 23:30 | 4.16 | 293 | 1420 (2009) | 93 (2012) | 490 | 93 | 118 | 228 | 284 | 438 | 640 | 656 | 1080 | 1420 |
| 2026-05-09 22:30 | 4.18 | 301 | 5620 (2009) | 98 (2012) | 763 | 98 | 111 | 228 | 304 | 492 | 700 | 804 | 1050 | 5620 |
| 2026-05-09 21:30 | 4.19 | 305 | 5620 (2009) | 98 (2012) | 763 | 98 | 111 | 228 | 304 | 492 | 700 | 804 | 1050 | 5620 |
| 2026-05-09 20:30 | 4.19 | 305 | 5620 (2009) | 98 (2012) | 763 | 98 | 111 | 228 | 304 | 492 | 700 | 804 | 1050 | 5620 |
| 2026-05-09 19:30 | 4.21 | 312 | 5620 (2009) | 98 (2012) | 763 | 98 | 111 | 228 | 304 | 492 | 700 | 804 | 1050 | 5620 |
| 2026-05-09 18:30 | 4.20 | 308 | 5620 (2009) | 98 (2012) | 763 | 98 | 111 | 228 | 304 | 492 | 700 | 804 | 1050 | 5620 |
| 2026-05-09 17:30 | 4.22 | 316 | 5620 (2009) | 98 (2012) | 763 | 98 | 111 | 228 | 304 | 492 | 700 | 804 | 1050 | 5620 |
| 2026-05-09 16:30 | 4.23 | 321 | 5620 (2009) | 98 (2012) | 763 | 98 | 111 | 228 | 304 | 492 | 700 | 804 | 1050 | 5620 |
| 2026-05-09 15:30 | 4.23 | 321 | 5620 (2009) | 98 (2012) | 763 | 98 | 111 | 228 | 304 | 492 | 700 | 804 | 1050 | 5620 |
| 2026-05-09 14:30 | 4.23 | 321 | 5620 (2009) | 98 (2012) | 763 | 98 | 111 | 228 | 304 | 492 | 700 | 804 | 1050 | 5620 |
| 2026-05-09 13:30 | 4.23 | 321 | 5620 (2009) | 98 (2012) | 763 | 98 | 111 | 228 | 304 | 492 | 700 | 804 | 1050 | 5620 |
| 2026-05-09 12:30 | 4.22 | 316 | 5620 (2009) | 98 (2012) | 763 | 98 | 111 | 228 | 304 | 492 | 700 | 804 | 1050 | 5620 |
| 2026-05-09 11:30 | 4.20 | 308 | 5620 (2009) | 98 (2012) | 763 | 98 | 111 | 228 | 304 | 492 | 700 | 804 | 1050 | 5620 |
| 2026-05-09 10:30 | 4.15 | 289 | 5620 (2009) | 98 (2012) | 763 | 98 | 111 | 228 | 304 | 492 | 700 | 804 | 1050 | 5620 |
| 2026-05-09 09:30 | 4.11 | 274 | 5620 (2009) | 98 (2012) | 763 | 98 | 111 | 228 | 304 | 492 | 700 | 804 | 1050 | 5620 |
| 2026-05-09 08:30 | 4.06 | 255 | 5620 (2009) | 98 (2012) | 763 | 98 | 111 | 228 | 304 | 492 | 700 | 804 | 1050 | 5620 |
| 2026-05-09 07:30 | 4.00 | 234 | 5620 (2009) | 98 (2012) | 763 | 98 | 111 | 228 | 304 | 492 | 700 | 804 | 1050 | 5620 |
| 2026-05-09 06:30 | 3.97 | 224 | 5620 (2009) | 98 (2012) | 763 | 98 | 111 | 228 | 304 | 492 | 700 | 804 | 1050 | 5620 |
| 2026-05-09 05:30 | 3.93 | 214 | 5620 (2009) | 98 (2012) | 763 | 98 | 111 | 228 | 304 | 492 | 700 | 804 | 1050 | 5620 |
| 2026-05-09 04:30 | 3.89 | 203 | 5620 (2009) | 98 (2012) | 763 | 98 | 111 | 228 | 304 | 492 | 700 | 804 | 1050 | 5620 |
| 2026-05-09 03:30 | 3.88 | 201 | 5620 (2009) | 98 (2012) | 763 | 98 | 111 | 228 | 304 | 492 | 700 | 804 | 1050 | 5620 |
| 2026-05-09 02:30 | 3.88 | 201 | 5620 (2009) | 98 (2012) | 763 | 98 | 111 | 228 | 304 | 492 | 700 | 804 | 1050 | 5620 |
| 2026-05-09 01:30 | 3.87 | 198 | 5620 (2009) | 98 (2012) | 763 | 98 | 111 | 228 | 304 | 492 | 700 | 804 | 1050 | 5620 |
| 2026-05-09 00:30 | 3.86 | 196 | 5620 (2009) | 98 (2012) | 763 | 98 | 111 | 228 | 304 | 492 | 700 | 804 | 1050 | 5620 |
| 2026-05-08 23:30 | 3.85 | 193 | 5620 (2009) | 98 (2012) | 763 | 98 | 111 | 228 | 304 | 492 | 700 | 804 | 1050 | 5620 |
| 2026-05-08 22:30 | 3.83 | 188 | 6740 (2009) | 101 (2012) | 814 | 101 | 111 | 159 | 238 | 375 | 872 | 894 | 1150 | 6740 |
| 2026-05-08 21:30 | 3.80 | 181 | 6740 (2009) | 101 (2012) | 814 | 101 | 111 | 159 | 238 | 375 | 872 | 894 | 1150 | 6740 |
| 2026-05-08 20:30 | 3.80 | 181 | 6740 (2009) | 101 (2012) | 814 | 101 | 111 | 159 | 238 | 375 | 872 | 894 | 1150 | 6740 |
| 2026-05-08 19:30 | 3.81 | 184 | 6740 (2009) | 101 (2012) | 814 | 101 | 111 | 159 | 238 | 375 | 872 | 894 | 1150 | 6740 |
| 2026-05-08 18:30 | 3.81 | 184 | 6740 (2009) | 101 (2012) | 814 | 101 | 111 | 159 | 238 | 375 | 872 | 894 | 1150 | 6740 |
| 2026-05-08 17:30 | 3.81 | 184 | 6740 (2009) | 101 (2012) | 814 | 101 | 111 | 159 | 238 | 375 | 872 | 894 | 1150 | 6740 |
| 2026-05-08 16:30 | 3.82 | 186 | 6740 (2009) | 101 (2012) | 814 | 101 | 111 | 159 | 238 | 375 | 872 | 894 | 1150 | 6740 |
| 2026-05-08 15:30 | 3.82 | 186 | 6740 (2009) | 101 (2012) | 814 | 101 | 111 | 159 | 238 | 375 | 872 | 894 | 1150 | 6740 |
| 2026-05-08 14:30 | 3.82 | 186 | 6740 (2009) | 101 (2012) | 814 | 101 | 111 | 159 | 238 | 375 | 872 | 894 | 1150 | 6740 |
| 2026-05-08 13:30 | 3.82 | 186 | 6740 (2009) | 101 (2012) | 814 | 101 | 111 | 159 | 238 | 375 | 872 | 894 | 1150 | 6740 |
| 2026-05-08 12:30 | 3.82 | 186 | 6740 (2009) | 101 (2012) | 814 | 101 | 111 | 159 | 238 | 375 | 872 | 894 | 1150 | 6740 |
| 2026-05-08 11:30 | 3.83 | 188 | 6740 (2009) | 101 (2012) | 814 | 101 | 111 | 159 | 238 | 375 | 872 | 894 | 1150 | 6740 |
| 2026-05-08 10:30 | 3.83 | 188 | 6740 (2009) | 101 (2012) | 814 | 101 | 111 | 159 | 238 | 375 | 872 | 894 | 1150 | 6740 |
| 2026-05-08 09:30 | 3.83 | 188 | 6740 (2009) | 101 (2012) | 814 | 101 | 111 | 159 | 238 | 375 | 872 | 894 | 1150 | 6740 |
| 2026-05-08 08:30 | 3.83 | 188 | 6740 (2009) | 101 (2012) | 814 | 101 | 111 | 159 | 238 | 375 | 872 | 894 | 1150 | 6740 |
| 2026-05-08 07:30 | 3.84 | 191 | 6740 (2009) | 101 (2012) | 814 | 101 | 111 | 159 | 238 | 375 | 872 | 894 | 1150 | 6740 |
| 2026-05-08 06:30 | 3.84 | 191 | 6740 (2009) | 101 (2012) | 814 | 101 | 111 | 159 | 238 | 375 | 872 | 894 | 1150 | 6740 |
| 2026-05-08 05:30 | 3.84 | 191 | 6740 (2009) | 101 (2012) | 814 | 101 | 111 | 159 | 238 | 375 | 872 | 894 | 1150 | 6740 |
| 2026-05-08 04:30 | 3.85 | 193 | 6740 (2009) | 101 (2012) | 814 | 101 | 111 | 159 | 238 | 375 | 872 | 894 | 1150 | 6740 |
| 2026-05-08 03:30 | 3.85 | 193 | 6740 (2009) | 101 (2012) | 814 | 101 | 111 | 159 | 238 | 375 | 872 | 894 | 1150 | 6740 |
| 2026-05-08 02:30 | 3.86 | 196 | 6740 (2009) | 101 (2012) | 814 | 101 | 111 | 159 | 238 | 375 | 872 | 894 | 1150 | 6740 |
| 2026-05-08 01:30 | 3.86 | 196 | 6740 (2009) | 101 (2012) | 814 | 101 | 111 | 159 | 238 | 375 | 872 | 894 | 1150 | 6740 |
| 2026-05-08 00:30 | 3.86 | 196 | 6740 (2009) | 101 (2012) | 814 | 101 | 111 | 159 | 238 | 375 | 872 | 894 | 1150 | 6740 |
| 2026-05-07 23:30 | 3.87 | 198 | 6740 (2009) | 101 (2012) | 814 | 101 | 111 | 159 | 238 | 375 | 872 | 894 | 1150 | 6740 |
| 2026-05-07 22:30 | 3.87 | 198 | 1350 (2022) | 100 (2012) | 485 | 100 | 115 | 173 | 221 | 377 | 822 | 854 | 937 | 1350 |
| 2026-05-07 21:30 | 3.88 | 201 | 1350 (2022) | 100 (2012) | 485 | 100 | 115 | 173 | 221 | 377 | 822 | 854 | 937 | 1350 |
| 2026-05-07 20:30 | 3.88 | 201 | 1350 (2022) | 100 (2012) | 485 | 100 | 115 | 173 | 221 | 377 | 822 | 854 | 937 | 1350 |
| 2026-05-07 19:30 | 3.88 | 201 | 1350 (2022) | 100 (2012) | 485 | 100 | 115 | 173 | 221 | 377 | 822 | 854 | 937 | 1350 |
| 2026-05-07 18:30 | 3.89 | 203 | 1350 (2022) | 100 (2012) | 485 | 100 | 115 | 173 | 221 | 377 | 822 | 854 | 937 | 1350 |
| 2026-05-07 17:30 | 3.88 | 201 | 1350 (2022) | 100 (2012) | 485 | 100 | 115 | 173 | 221 | 377 | 822 | 854 | 937 | 1350 |
| 2026-05-07 16:30 | 3.90 | 206 | 1350 (2022) | 100 (2012) | 485 | 100 | 115 | 173 | 221 | 377 | 822 | 854 | 937 | 1350 |
| 2026-05-07 15:30 | 3.90 | 206 | 1350 (2022) | 100 (2012) | 485 | 100 | 115 | 173 | 221 | 377 | 822 | 854 | 937 | 1350 |
| 2026-05-07 14:30 | 3.91 | 208 | 1350 (2022) | 100 (2012) | 485 | 100 | 115 | 173 | 221 | 377 | 822 | 854 | 937 | 1350 |
| 2026-05-07 13:30 | 3.92 | 211 | 1350 (2022) | 100 (2012) | 485 | 100 | 115 | 173 | 221 | 377 | 822 | 854 | 937 | 1350 |
| 2026-05-07 12:30 | 3.92 | 211 | 1350 (2022) | 100 (2012) | 485 | 100 | 115 | 173 | 221 | 377 | 822 | 854 | 937 | 1350 |
| 2026-05-07 11:30 | 3.93 | 214 | 1350 (2022) | 100 (2012) | 485 | 100 | 115 | 173 | 221 | 377 | 822 | 854 | 937 | 1350 |
| 2026-05-07 10:30 | 3.93 | 214 | 1350 (2022) | 100 (2012) | 485 | 100 | 115 | 173 | 221 | 377 | 822 | 854 | 937 | 1350 |
| 2026-05-07 09:30 | 3.94 | 217 | 1350 (2022) | 100 (2012) | 485 | 100 | 115 | 173 | 221 | 377 | 822 | 854 | 937 | 1350 |
| 2026-05-07 08:30 | 3.94 | 217 | 1350 (2022) | 100 (2012) | 485 | 100 | 115 | 173 | 221 | 377 | 822 | 854 | 937 | 1350 |
| 2026-05-07 07:30 | 3.96 | 220 | 1350 (2022) | 100 (2012) | 485 | 100 | 115 | 173 | 221 | 377 | 822 | 854 | 937 | 1350 |
| 2026-05-07 06:30 | 3.96 | 220 | 1350 (2022) | 100 (2012) | 485 | 100 | 115 | 173 | 221 | 377 | 822 | 854 | 937 | 1350 |
| 2026-05-07 05:30 | 3.97 | 224 | 1350 (2022) | 100 (2012) | 485 | 100 | 115 | 173 | 221 | 377 | 822 | 854 | 937 | 1350 |
| 2026-05-07 04:30 | 3.97 | 224 | 1350 (2022) | 100 (2012) | 485 | 100 | 115 | 173 | 221 | 377 | 822 | 854 | 937 | 1350 |
| 2026-05-07 03:30 | 3.98 | 227 | 1350 (2022) | 100 (2012) | 485 | 100 | 115 | 173 | 221 | 377 | 822 | 854 | 937 | 1350 |
| 2026-05-07 02:30 | 3.99 | 230 | 1350 (2022) | 100 (2012) | 485 | 100 | 115 | 173 | 221 | 377 | 822 | 854 | 937 | 1350 |
| 2026-05-07 01:30 | 3.99 | 230 | 1350 (2022) | 100 (2012) | 485 | 100 | 115 | 173 | 221 | 377 | 822 | 854 | 937 | 1350 |
| 2026-05-07 00:30 | 4.00 | 234 | 1350 (2022) | 100 (2012) | 485 | 100 | 115 | 173 | 221 | 377 | 822 | 854 | 937 | 1350 |
| 2026-05-06 23:30 | 4.01 | 237 | 1350 (2022) | 100 (2012) | 485 | 100 | 115 | 173 | 221 | 377 | 822 | 854 | 937 | 1350 |
| 2026-05-06 22:30 | 4.01 | 237 | 2810 (2022) | 97 (2012) | 607 | 97 | 122 | 192 | 222 | 451 | 751 | 927 | 1330 | 2810 |
| 2026-05-06 21:30 | 4.02 | 241 | 2810 (2022) | 97 (2012) | 607 | 97 | 122 | 192 | 222 | 451 | 751 | 927 | 1330 | 2810 |
| 2026-05-06 20:30 | 4.03 | 244 | 2810 (2022) | 97 (2012) | 607 | 97 | 122 | 192 | 222 | 451 | 751 | 927 | 1330 | 2810 |
| 2026-05-06 19:30 | 4.03 | 244 | 2810 (2022) | 97 (2012) | 607 | 97 | 122 | 192 | 222 | 451 | 751 | 927 | 1330 | 2810 |
| 2026-05-06 18:30 | 4.03 | 244 | 2810 (2022) | 97 (2012) | 607 | 97 | 122 | 192 | 222 | 451 | 751 | 927 | 1330 | 2810 |
| 2026-05-06 17:30 | 4.04 | 248 | 2810 (2022) | 97 (2012) | 607 | 97 | 122 | 192 | 222 | 451 | 751 | 927 | 1330 | 2810 |
| 2026-05-06 16:30 | 4.04 | 248 | 2810 (2022) | 97 (2012) | 607 | 97 | 122 | 192 | 222 | 451 | 751 | 927 | 1330 | 2810 |
| 2026-05-06 15:30 | 4.05 | 252 | 2810 (2022) | 97 (2012) | 607 | 97 | 122 | 192 | 222 | 451 | 751 | 927 | 1330 | 2810 |
| 2026-05-06 14:30 | 4.04 | 248 | 2810 (2022) | 97 (2012) | 607 | 97 | 122 | 192 | 222 | 451 | 751 | 927 | 1330 | 2810 |
| 2026-05-06 13:30 | 4.03 | 244 | 2810 (2022) | 97 (2012) | 607 | 97 | 122 | 192 | 222 | 451 | 751 | 927 | 1330 | 2810 |
| 2026-05-06 12:30 | 4.02 | 241 | 2810 (2022) | 97 (2012) | 607 | 97 | 122 | 192 | 222 | 451 | 751 | 927 | 1330 | 2810 |
| 2026-05-06 11:30 | 4.02 | 241 | 2810 (2022) | 97 (2012) | 607 | 97 | 122 | 192 | 222 | 451 | 751 | 927 | 1330 | 2810 |
| 2026-05-06 10:30 | 4.02 | 241 | 2810 (2022) | 97 (2012) | 607 | 97 | 122 | 192 | 222 | 451 | 751 | 927 | 1330 | 2810 |
| 2026-05-06 09:30 | 4.02 | 241 | 2810 (2022) | 97 (2012) | 607 | 97 | 122 | 192 | 222 | 451 | 751 | 927 | 1330 | 2810 |
| 2026-05-06 08:30 | 4.02 | 241 | 2810 (2022) | 97 (2012) | 607 | 97 | 122 | 192 | 222 | 451 | 751 | 927 | 1330 | 2810 |
| 2026-05-06 07:30 | 4.00 | 234 | 2810 (2022) | 97 (2012) | 607 | 97 | 122 | 192 | 222 | 451 | 751 | 927 | 1330 | 2810 |
| 2026-05-06 06:30 | 3.99 | 230 | 2810 (2022) | 97 (2012) | 607 | 97 | 122 | 192 | 222 | 451 | 751 | 927 | 1330 | 2810 |
| 2026-05-06 05:30 | 3.98 | 227 | 2810 (2022) | 97 (2012) | 607 | 97 | 122 | 192 | 222 | 451 | 751 | 927 | 1330 | 2810 |
| 2026-05-06 04:30 | 3.96 | 220 | 2810 (2022) | 97 (2012) | 607 | 97 | 122 | 192 | 222 | 451 | 751 | 927 | 1330 | 2810 |
| 2026-05-06 03:30 | 3.93 | 214 | 2810 (2022) | 97 (2012) | 607 | 97 | 122 | 192 | 222 | 451 | 751 | 927 | 1330 | 2810 |
| 2026-05-06 02:30 | 3.92 | 211 | 2810 (2022) | 97 (2012) | 607 | 97 | 122 | 192 | 222 | 451 | 751 | 927 | 1330 | 2810 |
| 2026-05-06 01:30 | 3.90 | 206 | 2810 (2022) | 97 (2012) | 607 | 97 | 122 | 192 | 222 | 451 | 751 | 927 | 1330 | 2810 |
| 2026-05-06 00:30 | 3.90 | 206 | 2810 (2022) | 97 (2012) | 607 | 97 | 122 | 192 | 222 | 451 | 751 | 927 | 1330 | 2810 |
| 2026-05-05 23:30 | 3.89 | 203 | 2810 (2022) | 97 (2012) | 607 | 97 | 122 | 192 | 222 | 451 | 751 | 927 | 1330 | 2810 |
| 2026-05-05 22:30 | 3.89 | 203 | 3560 (2017) | 99 (2012) | 811 | 99 | 128 | 223 | 224 | 510 | 983 | 1200 | 2760 | 3560 |
| 2026-05-05 21:30 | 3.88 | 201 | 3560 (2017) | 99 (2012) | 811 | 99 | 128 | 223 | 224 | 510 | 983 | 1200 | 2760 | 3560 |
| 2026-05-05 20:30 | 3.86 | 196 | 3560 (2017) | 99 (2012) | 811 | 99 | 128 | 223 | 224 | 510 | 983 | 1200 | 2760 | 3560 |
| 2026-05-05 19:30 | 3.86 | 196 | 3560 (2017) | 99 (2012) | 811 | 99 | 128 | 223 | 224 | 510 | 983 | 1200 | 2760 | 3560 |
| 2026-05-05 18:30 | 3.86 | 196 | 3560 (2017) | 99 (2012) | 811 | 99 | 128 | 223 | 224 | 510 | 983 | 1200 | 2760 | 3560 |
| 2026-05-05 17:30 | 3.85 | 193 | 3560 (2017) | 99 (2012) | 811 | 99 | 128 | 223 | 224 | 510 | 983 | 1200 | 2760 | 3560 |
| 2026-05-05 16:30 | 3.85 | 193 | 3560 (2017) | 99 (2012) | 811 | 99 | 128 | 223 | 224 | 510 | 983 | 1200 | 2760 | 3560 |
| 2026-05-05 15:30 | 3.85 | 193 | 3560 (2017) | 99 (2012) | 811 | 99 | 128 | 223 | 224 | 510 | 983 | 1200 | 2760 | 3560 |
| 2026-05-05 14:30 | 3.85 | 193 | 3560 (2017) | 99 (2012) | 811 | 99 | 128 | 223 | 224 | 510 | 983 | 1200 | 2760 | 3560 |
| 2026-05-05 13:30 | 3.86 | 196 | 3560 (2017) | 99 (2012) | 811 | 99 | 128 | 223 | 224 | 510 | 983 | 1200 | 2760 | 3560 |
| 2026-05-05 12:30 | 3.86 | 196 | 3560 (2017) | 99 (2012) | 811 | 99 | 128 | 223 | 224 | 510 | 983 | 1200 | 2760 | 3560 |
| 2026-05-05 11:30 | 3.85 | 193 | 3560 (2017) | 99 (2012) | 811 | 99 | 128 | 223 | 224 | 510 | 983 | 1200 | 2760 | 3560 |
| 2026-05-05 10:30 | 3.86 | 196 | 3560 (2017) | 99 (2012) | 811 | 99 | 128 | 223 | 224 | 510 | 983 | 1200 | 2760 | 3560 |
| 2026-05-05 09:30 | 3.87 | 198 | 3560 (2017) | 99 (2012) | 811 | 99 | 128 | 223 | 224 | 510 | 983 | 1200 | 2760 | 3560 |
| 2026-05-05 08:30 | 3.87 | 198 | 3560 (2017) | 99 (2012) | 811 | 99 | 128 | 223 | 224 | 510 | 983 | 1200 | 2760 | 3560 |
| 2026-05-05 07:30 | 3.87 | 198 | 3560 (2017) | 99 (2012) | 811 | 99 | 128 | 223 | 224 | 510 | 983 | 1200 | 2760 | 3560 |
| 2026-05-05 06:30 | 3.86 | 196 | 3560 (2017) | 99 (2012) | 811 | 99 | 128 | 223 | 224 | 510 | 983 | 1200 | 2760 | 3560 |
| 2026-05-05 05:30 | 3.84 | 191 | 3560 (2017) | 99 (2012) | 811 | 99 | 128 | 223 | 224 | 510 | 983 | 1200 | 2760 | 3560 |
| 2026-05-05 04:30 | 3.85 | 193 | 3560 (2017) | 99 (2012) | 811 | 99 | 128 | 223 | 224 | 510 | 983 | 1200 | 2760 | 3560 |
| 2026-05-05 03:30 | 3.84 | 191 | 3560 (2017) | 99 (2012) | 811 | 99 | 128 | 223 | 224 | 510 | 983 | 1200 | 2760 | 3560 |
| 2026-05-05 02:30 | 3.85 | 193 | 3560 (2017) | 99 (2012) | 811 | 99 | 128 | 223 | 224 | 510 | 983 | 1200 | 2760 | 3560 |
| 2026-05-05 01:30 | 3.86 | 196 | 3560 (2017) | 99 (2012) | 811 | 99 | 128 | 223 | 224 | 510 | 983 | 1200 | 2760 | 3560 |
| 2026-05-05 00:30 | 3.85 | 193 | 3560 (2017) | 99 (2012) | 811 | 99 | 128 | 223 | 224 | 510 | 983 | 1200 | 2760 | 3560 |
| 2026-05-04 23:30 | 3.86 | 196 | 3560 (2017) | 99 (2012) | 811 | 99 | 128 | 223 | 224 | 510 | 983 | 1200 | 2760 | 3560 |
| 2026-05-04 22:30 | 3.86 | 196 | 4720 (2017) | 101 (2012) | 1050 | 101 | 131 | 228 | 268 | 537 | 1260 | 1610 | 4430 | 4720 |
| 2026-05-04 21:30 | 3.86 | 196 | 4720 (2017) | 101 (2012) | 1050 | 101 | 131 | 228 | 268 | 537 | 1260 | 1610 | 4430 | 4720 |
| 2026-05-04 20:30 | 3.86 | 196 | 4720 (2017) | 101 (2012) | 1050 | 101 | 131 | 228 | 268 | 537 | 1260 | 1610 | 4430 | 4720 |
| 2026-05-04 19:30 | 3.87 | 198 | 4720 (2017) | 101 (2012) | 1050 | 101 | 131 | 228 | 268 | 537 | 1260 | 1610 | 4430 | 4720 |
| 2026-05-04 18:30 | 3.87 | 198 | 4720 (2017) | 101 (2012) | 1050 | 101 | 131 | 228 | 268 | 537 | 1260 | 1610 | 4430 | 4720 |
| 2026-05-04 17:30 | 3.88 | 201 | 4720 (2017) | 101 (2012) | 1050 | 101 | 131 | 228 | 268 | 537 | 1260 | 1610 | 4430 | 4720 |
| 2026-05-04 16:30 | 3.88 | 201 | 4720 (2017) | 101 (2012) | 1050 | 101 | 131 | 228 | 268 | 537 | 1260 | 1610 | 4430 | 4720 |
| 2026-05-04 15:30 | 3.88 | 201 | 4720 (2017) | 101 (2012) | 1050 | 101 | 131 | 228 | 268 | 537 | 1260 | 1610 | 4430 | 4720 |
| 2026-05-04 14:30 | 3.89 | 203 | 4720 (2017) | 101 (2012) | 1050 | 101 | 131 | 228 | 268 | 537 | 1260 | 1610 | 4430 | 4720 |
| 2026-05-04 13:30 | 3.89 | 203 | 4720 (2017) | 101 (2012) | 1050 | 101 | 131 | 228 | 268 | 537 | 1260 | 1610 | 4430 | 4720 |
| 2026-05-04 12:30 | 3.89 | 203 | 4720 (2017) | 101 (2012) | 1050 | 101 | 131 | 228 | 268 | 537 | 1260 | 1610 | 4430 | 4720 |
| 2026-05-04 11:30 | 3.89 | 203 | 4720 (2017) | 101 (2012) | 1050 | 101 | 131 | 228 | 268 | 537 | 1260 | 1610 | 4430 | 4720 |
| 2026-05-04 10:30 | 3.90 | 206 | 4720 (2017) | 101 (2012) | 1050 | 101 | 131 | 228 | 268 | 537 | 1260 | 1610 | 4430 | 4720 |
| 2026-05-04 09:30 | 3.90 | 206 | 4720 (2017) | 101 (2012) | 1050 | 101 | 131 | 228 | 268 | 537 | 1260 | 1610 | 4430 | 4720 |
| 2026-05-04 08:30 | 3.90 | 206 | 4720 (2017) | 101 (2012) | 1050 | 101 | 131 | 228 | 268 | 537 | 1260 | 1610 | 4430 | 4720 |
| 2026-05-04 07:30 | 3.91 | 208 | 4720 (2017) | 101 (2012) | 1050 | 101 | 131 | 228 | 268 | 537 | 1260 | 1610 | 4430 | 4720 |
| 2026-05-04 06:30 | 3.91 | 208 | 4720 (2017) | 101 (2012) | 1050 | 101 | 131 | 228 | 268 | 537 | 1260 | 1610 | 4430 | 4720 |
| 2026-05-04 05:30 | 3.91 | 208 | 4720 (2017) | 101 (2012) | 1050 | 101 | 131 | 228 | 268 | 537 | 1260 | 1610 | 4430 | 4720 |
| 2026-05-04 04:30 | 3.91 | 208 | 4720 (2017) | 101 (2012) | 1050 | 101 | 131 | 228 | 268 | 537 | 1260 | 1610 | 4430 | 4720 |
| 2026-05-04 03:30 | 3.92 | 211 | 4720 (2017) | 101 (2012) | 1050 | 101 | 131 | 228 | 268 | 537 | 1260 | 1610 | 4430 | 4720 |
| 2026-05-04 02:30 | 3.92 | 211 | 4720 (2017) | 101 (2012) | 1050 | 101 | 131 | 228 | 268 | 537 | 1260 | 1610 | 4430 | 4720 |
| 2026-05-04 01:30 | 3.92 | 211 | 4720 (2017) | 101 (2012) | 1050 | 101 | 131 | 228 | 268 | 537 | 1260 | 1610 | 4430 | 4720 |
| 2026-05-04 00:30 | 3.92 | 211 | 4720 (2017) | 101 (2012) | 1050 | 101 | 131 | 228 | 268 | 537 | 1260 | 1610 | 4430 | 4720 |
| 2026-05-03 23:30 | 3.93 | 214 | 4720 (2017) | 101 (2012) | 1050 | 101 | 131 | 228 | 268 | 537 | 1260 | 1610 | 4430 | 4720 |
| 2026-05-03 22:30 | 3.93 | 214 | 3180 (2013) | 104 (2012) | 726 | 104 | 133 | 233 | 333 | 449 | 1040 | 1280 | 1770 | 3180 |
| 2026-05-03 21:30 | 3.93 | 214 | 3180 (2013) | 104 (2012) | 726 | 104 | 133 | 233 | 333 | 449 | 1040 | 1280 | 1770 | 3180 |
| 2026-05-03 20:30 | 3.93 | 214 | 3180 (2013) | 104 (2012) | 726 | 104 | 133 | 233 | 333 | 449 | 1040 | 1280 | 1770 | 3180 |
| 2026-05-03 19:30 | 3.94 | 217 | 3180 (2013) | 104 (2012) | 726 | 104 | 133 | 233 | 333 | 449 | 1040 | 1280 | 1770 | 3180 |
| 2026-05-03 18:30 | 3.94 | 217 | 3180 (2013) | 104 (2012) | 726 | 104 | 133 | 233 | 333 | 449 | 1040 | 1280 | 1770 | 3180 |
| 2026-05-03 17:30 | 3.96 | 220 | 3180 (2013) | 104 (2012) | 726 | 104 | 133 | 233 | 333 | 449 | 1040 | 1280 | 1770 | 3180 |
| 2026-05-03 16:30 | 3.94 | 217 | 3180 (2013) | 104 (2012) | 726 | 104 | 133 | 233 | 333 | 449 | 1040 | 1280 | 1770 | 3180 |
| 2026-05-03 15:30 | 3.96 | 220 | 3180 (2013) | 104 (2012) | 726 | 104 | 133 | 233 | 333 | 449 | 1040 | 1280 | 1770 | 3180 |
| 2026-05-03 14:30 | 3.96 | 220 | 3180 (2013) | 104 (2012) | 726 | 104 | 133 | 233 | 333 | 449 | 1040 | 1280 | 1770 | 3180 |
| 2026-05-03 13:30 | 3.97 | 224 | 3180 (2013) | 104 (2012) | 726 | 104 | 133 | 233 | 333 | 449 | 1040 | 1280 | 1770 | 3180 |
| 2026-05-03 12:30 | 3.98 | 227 | 3180 (2013) | 104 (2012) | 726 | 104 | 133 | 233 | 333 | 449 | 1040 | 1280 | 1770 | 3180 |
| 2026-05-03 11:30 | 3.98 | 227 | 3180 (2013) | 104 (2012) | 726 | 104 | 133 | 233 | 333 | 449 | 1040 | 1280 | 1770 | 3180 |
| 2026-05-03 10:30 | 3.98 | 227 | 3180 (2013) | 104 (2012) | 726 | 104 | 133 | 233 | 333 | 449 | 1040 | 1280 | 1770 | 3180 |
| 2026-05-03 09:30 | 3.98 | 227 | 3180 (2013) | 104 (2012) | 726 | 104 | 133 | 233 | 333 | 449 | 1040 | 1280 | 1770 | 3180 |
| 2026-05-03 08:30 | 3.98 | 227 | 3180 (2013) | 104 (2012) | 726 | 104 | 133 | 233 | 333 | 449 | 1040 | 1280 | 1770 | 3180 |
| 2026-05-03 07:30 | 3.99 | 230 | 3180 (2013) | 104 (2012) | 726 | 104 | 133 | 233 | 333 | 449 | 1040 | 1280 | 1770 | 3180 |
| 2026-05-03 06:30 | 3.99 | 230 | 3180 (2013) | 104 (2012) | 726 | 104 | 133 | 233 | 333 | 449 | 1040 | 1280 | 1770 | 3180 |
| 2026-05-03 05:30 | 3.99 | 230 | 3180 (2013) | 104 (2012) | 726 | 104 | 133 | 233 | 333 | 449 | 1040 | 1280 | 1770 | 3180 |
| 2026-05-03 04:30 | 4.00 | 234 | 3180 (2013) | 104 (2012) | 726 | 104 | 133 | 233 | 333 | 449 | 1040 | 1280 | 1770 | 3180 |
| 2026-05-03 03:30 | 4.00 | 234 | 3180 (2013) | 104 (2012) | 726 | 104 | 133 | 233 | 333 | 449 | 1040 | 1280 | 1770 | 3180 |
| 2026-05-03 02:30 | 4.01 | 237 | 3180 (2013) | 104 (2012) | 726 | 104 | 133 | 233 | 333 | 449 | 1040 | 1280 | 1770 | 3180 |
| 2026-05-03 01:30 | 4.01 | 237 | 3180 (2013) | 104 (2012) | 726 | 104 | 133 | 233 | 333 | 449 | 1040 | 1280 | 1770 | 3180 |
| 2026-05-03 00:30 | 4.01 | 237 | 3180 (2013) | 104 (2012) | 726 | 104 | 133 | 233 | 333 | 449 | 1040 | 1280 | 1770 | 3180 |
| 2026-05-02 23:30 | 4.01 | 237 | 3180 (2013) | 104 (2012) | 726 | 104 | 133 | 233 | 333 | 449 | 1040 | 1280 | 1770 | 3180 |
| 2026-05-02 22:30 | 4.02 | 241 | 2650 (2011) | 108 (2012) | 652 | 108 | 135 | 238 | 242 | 472 | 651 | 928 | 1630 | 2650 |
| 2026-05-02 21:30 | 4.03 | 244 | 2650 (2011) | 108 (2012) | 652 | 108 | 135 | 238 | 242 | 472 | 651 | 928 | 1630 | 2650 |
| 2026-05-02 20:30 | 4.03 | 244 | 2650 (2011) | 108 (2012) | 652 | 108 | 135 | 238 | 242 | 472 | 651 | 928 | 1630 | 2650 |
| 2026-05-02 19:30 | 4.04 | 248 | 2650 (2011) | 108 (2012) | 652 | 108 | 135 | 238 | 242 | 472 | 651 | 928 | 1630 | 2650 |
| 2026-05-02 18:30 | 4.04 | 248 | 2650 (2011) | 108 (2012) | 652 | 108 | 135 | 238 | 242 | 472 | 651 | 928 | 1630 | 2650 |
| 2026-05-02 17:30 | 4.04 | 248 | 2650 (2011) | 108 (2012) | 652 | 108 | 135 | 238 | 242 | 472 | 651 | 928 | 1630 | 2650 |
| 2026-05-02 16:30 | 4.05 | 252 | 2650 (2011) | 108 (2012) | 652 | 108 | 135 | 238 | 242 | 472 | 651 | 928 | 1630 | 2650 |
| 2026-05-02 15:30 | 4.05 | 252 | 2650 (2011) | 108 (2012) | 652 | 108 | 135 | 238 | 242 | 472 | 651 | 928 | 1630 | 2650 |
| 2026-05-02 14:30 | 4.06 | 255 | 2650 (2011) | 108 (2012) | 652 | 108 | 135 | 238 | 242 | 472 | 651 | 928 | 1630 | 2650 |
| 2026-05-02 13:30 | 4.06 | 255 | 2650 (2011) | 108 (2012) | 652 | 108 | 135 | 238 | 242 | 472 | 651 | 928 | 1630 | 2650 |
| 2026-05-02 12:30 | 4.07 | 259 | 2650 (2011) | 108 (2012) | 652 | 108 | 135 | 238 | 242 | 472 | 651 | 928 | 1630 | 2650 |
| 2026-05-02 11:30 | 4.07 | 259 | 2650 (2011) | 108 (2012) | 652 | 108 | 135 | 238 | 242 | 472 | 651 | 928 | 1630 | 2650 |
| 2026-05-02 10:30 | 4.08 | 263 | 2650 (2011) | 108 (2012) | 652 | 108 | 135 | 238 | 242 | 472 | 651 | 928 | 1630 | 2650 |
| 2026-05-02 09:30 | 4.08 | 263 | 2650 (2011) | 108 (2012) | 652 | 108 | 135 | 238 | 242 | 472 | 651 | 928 | 1630 | 2650 |
| 2026-05-02 08:30 | 4.09 | 266 | 2650 (2011) | 108 (2012) | 652 | 108 | 135 | 238 | 242 | 472 | 651 | 928 | 1630 | 2650 |
| 2026-05-02 07:30 | 4.09 | 266 | 2650 (2011) | 108 (2012) | 652 | 108 | 135 | 238 | 242 | 472 | 651 | 928 | 1630 | 2650 |
| 2026-05-02 06:30 | 4.09 | 266 | 2650 (2011) | 108 (2012) | 652 | 108 | 135 | 238 | 242 | 472 | 651 | 928 | 1630 | 2650 |
| 2026-05-02 05:30 | 4.10 | 270 | 2650 (2011) | 108 (2012) | 652 | 108 | 135 | 238 | 242 | 472 | 651 | 928 | 1630 | 2650 |
| 2026-05-02 04:30 | 4.10 | 270 | 2650 (2011) | 108 (2012) | 652 | 108 | 135 | 238 | 242 | 472 | 651 | 928 | 1630 | 2650 |
| 2026-05-02 03:30 | 4.12 | 277 | 2650 (2011) | 108 (2012) | 652 | 108 | 135 | 238 | 242 | 472 | 651 | 928 | 1630 | 2650 |
| 2026-05-02 02:30 | 4.12 | 277 | 2650 (2011) | 108 (2012) | 652 | 108 | 135 | 238 | 242 | 472 | 651 | 928 | 1630 | 2650 |
| 2026-05-02 01:30 | 4.13 | 281 | 2650 (2011) | 108 (2012) | 652 | 108 | 135 | 238 | 242 | 472 | 651 | 928 | 1630 | 2650 |
| 2026-05-02 00:30 | 4.14 | 285 | 2650 (2011) | 108 (2012) | 652 | 108 | 135 | 238 | 242 | 472 | 651 | 928 | 1630 | 2650 |
| 2026-05-01 23:30 | 4.14 | 285 | 2650 (2011) | 108 (2012) | 652 | 108 | 135 | 238 | 242 | 472 | 651 | 928 | 1630 | 2650 |
| 2026-05-01 22:30 | 4.15 | 289 | 3760 (2017) | 110 (2012) | 861 | 110 | 138 | 244 | 253 | 516 | 1160 | 1420 | 2560 | 3760 |
| 2026-05-01 21:30 | 4.16 | 293 | 3760 (2017) | 110 (2012) | 861 | 110 | 138 | 244 | 253 | 516 | 1160 | 1420 | 2560 | 3760 |
| 2026-05-01 20:30 | 4.16 | 293 | 3760 (2017) | 110 (2012) | 861 | 110 | 138 | 244 | 253 | 516 | 1160 | 1420 | 2560 | 3760 |
| 2026-05-01 19:30 | 4.16 | 293 | 3760 (2017) | 110 (2012) | 861 | 110 | 138 | 244 | 253 | 516 | 1160 | 1420 | 2560 | 3760 |
| 2026-05-01 18:30 | 4.17 | 297 | 3760 (2017) | 110 (2012) | 861 | 110 | 138 | 244 | 253 | 516 | 1160 | 1420 | 2560 | 3760 |
| 2026-05-01 17:30 | 4.17 | 297 | 3760 (2017) | 110 (2012) | 861 | 110 | 138 | 244 | 253 | 516 | 1160 | 1420 | 2560 | 3760 |
| 2026-05-01 16:30 | 4.17 | 297 | 3760 (2017) | 110 (2012) | 861 | 110 | 138 | 244 | 253 | 516 | 1160 | 1420 | 2560 | 3760 |
| 2026-05-01 15:30 | 4.19 | 305 | 3760 (2017) | 110 (2012) | 861 | 110 | 138 | 244 | 253 | 516 | 1160 | 1420 | 2560 | 3760 |
| 2026-05-01 14:30 | 4.20 | 308 | 3760 (2017) | 110 (2012) | 861 | 110 | 138 | 244 | 253 | 516 | 1160 | 1420 | 2560 | 3760 |
| 2026-05-01 13:30 | 4.21 | 312 | 3760 (2017) | 110 (2012) | 861 | 110 | 138 | 244 | 253 | 516 | 1160 | 1420 | 2560 | 3760 |
| 2026-05-01 12:30 | 4.21 | 312 | 3760 (2017) | 110 (2012) | 861 | 110 | 138 | 244 | 253 | 516 | 1160 | 1420 | 2560 | 3760 |
| 2026-05-01 11:30 | 4.22 | 316 | 3760 (2017) | 110 (2012) | 861 | 110 | 138 | 244 | 253 | 516 | 1160 | 1420 | 2560 | 3760 |
| 2026-05-01 10:30 | 4.23 | 321 | 3760 (2017) | 110 (2012) | 861 | 110 | 138 | 244 | 253 | 516 | 1160 | 1420 | 2560 | 3760 |
| 2026-05-01 09:30 | 4.24 | 325 | 3760 (2017) | 110 (2012) | 861 | 110 | 138 | 244 | 253 | 516 | 1160 | 1420 | 2560 | 3760 |
| 2026-05-01 08:30 | 4.25 | 329 | 3760 (2017) | 110 (2012) | 861 | 110 | 138 | 244 | 253 | 516 | 1160 | 1420 | 2560 | 3760 |
| 2026-05-01 07:30 | 4.25 | 329 | 3760 (2017) | 110 (2012) | 861 | 110 | 138 | 244 | 253 | 516 | 1160 | 1420 | 2560 | 3760 |
| 2026-05-01 06:30 | 4.26 | 333 | 3760 (2017) | 110 (2012) | 861 | 110 | 138 | 244 | 253 | 516 | 1160 | 1420 | 2560 | 3760 |
| 2026-05-01 05:30 | 4.27 | 337 | 3760 (2017) | 110 (2012) | 861 | 110 | 138 | 244 | 253 | 516 | 1160 | 1420 | 2560 | 3760 |
| 2026-05-01 04:30 | 4.28 | 341 | 3760 (2017) | 110 (2012) | 861 | 110 | 138 | 244 | 253 | 516 | 1160 | 1420 | 2560 | 3760 |
| 2026-05-01 03:30 | 4.28 | 341 | 3760 (2017) | 110 (2012) | 861 | 110 | 138 | 244 | 253 | 516 | 1160 | 1420 | 2560 | 3760 |
| 2026-05-01 02:30 | 4.30 | 345 | 3760 (2017) | 110 (2012) | 861 | 110 | 138 | 244 | 253 | 516 | 1160 | 1420 | 2560 | 3760 |
| 2026-05-01 01:30 | 4.32 | 354 | 3760 (2017) | 110 (2012) | 861 | 110 | 138 | 244 | 253 | 516 | 1160 | 1420 | 2560 | 3760 |
| 2026-05-01 00:30 | 4.33 | 358 | 3760 (2017) | 110 (2012) | 861 | 110 | 138 | 244 | 253 | 516 | 1160 | 1420 | 2560 | 3760 |
| 2026-04-30 23:30 | 4.33 | 358 | 3760 (2017) | 110 (2012) | 861 | 110 | 138 | 244 | 253 | 516 | 1160 | 1420 | 2560 | 3760 |
| 2026-04-30 22:30 | 4.34 | 362 | 21100 (2017) | 110 (2012) | 1680 | 110 | 141 | 239 | 251 | 399 | 994 | 1450 | 1570 | 21100 |
| 2026-04-30 21:30 | 4.36 | 371 | 21100 (2017) | 110 (2012) | 1680 | 110 | 141 | 239 | 251 | 399 | 994 | 1450 | 1570 | 21100 |
| 2026-04-30 20:30 | 4.37 | 375 | 21100 (2017) | 110 (2012) | 1680 | 110 | 141 | 239 | 251 | 399 | 994 | 1450 | 1570 | 21100 |
| 2026-04-30 19:30 | 4.37 | 375 | 21100 (2017) | 110 (2012) | 1680 | 110 | 141 | 239 | 251 | 399 | 994 | 1450 | 1570 | 21100 |
| 2026-04-30 18:30 | 4.39 | 384 | 21100 (2017) | 110 (2012) | 1680 | 110 | 141 | 239 | 251 | 399 | 994 | 1450 | 1570 | 21100 |
| 2026-04-30 17:30 | 4.38 | 380 | 21100 (2017) | 110 (2012) | 1680 | 110 | 141 | 239 | 251 | 399 | 994 | 1450 | 1570 | 21100 |
| 2026-04-30 16:30 | 4.40 | 389 | 21100 (2017) | 110 (2012) | 1680 | 110 | 141 | 239 | 251 | 399 | 994 | 1450 | 1570 | 21100 |
| 2026-04-30 15:30 | 4.42 | 398 | 21100 (2017) | 110 (2012) | 1680 | 110 | 141 | 239 | 251 | 399 | 994 | 1450 | 1570 | 21100 |
| 2026-04-30 14:30 | 4.43 | 402 | 21100 (2017) | 110 (2012) | 1680 | 110 | 141 | 239 | 251 | 399 | 994 | 1450 | 1570 | 21100 |
| 2026-04-30 13:30 | 4.46 | 416 | 21100 (2017) | 110 (2012) | 1680 | 110 | 141 | 239 | 251 | 399 | 994 | 1450 | 1570 | 21100 |
| 2026-04-30 12:30 | 4.43 | 402 | 21100 (2017) | 110 (2012) | 1680 | 110 | 141 | 239 | 251 | 399 | 994 | 1450 | 1570 | 21100 |
| 2026-04-30 11:30 | 4.47 | 420 | 21100 (2017) | 110 (2012) | 1680 | 110 | 141 | 239 | 251 | 399 | 994 | 1450 | 1570 | 21100 |
| 2026-04-30 10:30 | 4.48 | 425 | 21100 (2017) | 110 (2012) | 1680 | 110 | 141 | 239 | 251 | 399 | 994 | 1450 | 1570 | 21100 |
| 2026-04-30 09:30 | 4.49 | 430 | 21100 (2017) | 110 (2012) | 1680 | 110 | 141 | 239 | 251 | 399 | 994 | 1450 | 1570 | 21100 |
| 2026-04-30 08:30 | 4.50 | 435 | 21100 (2017) | 110 (2012) | 1680 | 110 | 141 | 239 | 251 | 399 | 994 | 1450 | 1570 | 21100 |
| 2026-04-30 07:30 | 4.51 | 439 | 21100 (2017) | 110 (2012) | 1680 | 110 | 141 | 239 | 251 | 399 | 994 | 1450 | 1570 | 21100 |
| 2026-04-30 06:30 | 4.53 | 449 | 21100 (2017) | 110 (2012) | 1680 | 110 | 141 | 239 | 251 | 399 | 994 | 1450 | 1570 | 21100 |
| 2026-04-30 05:30 | 4.55 | 458 | 21100 (2017) | 110 (2012) | 1680 | 110 | 141 | 239 | 251 | 399 | 994 | 1450 | 1570 | 21100 |
| 2026-04-30 04:30 | 4.55 | 458 | 21100 (2017) | 110 (2012) | 1680 | 110 | 141 | 239 | 251 | 399 | 994 | 1450 | 1570 | 21100 |
| 2026-04-30 03:30 | 4.58 | 473 | 21100 (2017) | 110 (2012) | 1680 | 110 | 141 | 239 | 251 | 399 | 994 | 1450 | 1570 | 21100 |
| 2026-04-30 02:30 | 4.59 | 478 | 21100 (2017) | 110 (2012) | 1680 | 110 | 141 | 239 | 251 | 399 | 994 | 1450 | 1570 | 21100 |
| 2026-04-30 01:30 | 4.62 | 488 | 21100 (2017) | 110 (2012) | 1680 | 110 | 141 | 239 | 251 | 399 | 994 | 1450 | 1570 | 21100 |
| 2026-04-30 00:30 | 4.64 | 498 | 21100 (2017) | 110 (2012) | 1680 | 110 | 141 | 239 | 251 | 399 | 994 | 1450 | 1570 | 21100 |
| 2026-04-29 23:30 | 4.67 | 513 | 21100 (2017) | 110 (2012) | 1680 | 110 | 141 | 239 | 251 | 399 | 994 | 1450 | 1570 | 21100 |
| 2026-04-29 22:30 | 4.69 | 523 | 13100 (2017) | 112 (2012) | 1470 | 112 | 145 | 258 | 283 | 438 | 1620 | 1980 | 3750 | 13100 |
| 2026-04-29 21:30 | 4.70 | 529 | 13100 (2017) | 112 (2012) | 1470 | 112 | 145 | 258 | 283 | 438 | 1620 | 1980 | 3750 | 13100 |
| 2026-04-29 20:30 | 4.73 | 544 | 13100 (2017) | 112 (2012) | 1470 | 112 | 145 | 258 | 283 | 438 | 1620 | 1980 | 3750 | 13100 |
| 2026-04-29 19:30 | 4.74 | 550 | 13100 (2017) | 112 (2012) | 1470 | 112 | 145 | 258 | 283 | 438 | 1620 | 1980 | 3750 | 13100 |
| 2026-04-29 18:30 | 4.76 | 560 | 13100 (2017) | 112 (2012) | 1470 | 112 | 145 | 258 | 283 | 438 | 1620 | 1980 | 3750 | 13100 |
| 2026-04-29 17:30 | 4.79 | 576 | 13100 (2017) | 112 (2012) | 1470 | 112 | 145 | 258 | 283 | 438 | 1620 | 1980 | 3750 | 13100 |
| 2026-04-29 16:30 | 4.82 | 593 | 13100 (2017) | 112 (2012) | 1470 | 112 | 145 | 258 | 283 | 438 | 1620 | 1980 | 3750 | 13100 |
| 2026-04-29 15:30 | 4.84 | 604 | 13100 (2017) | 112 (2012) | 1470 | 112 | 145 | 258 | 283 | 438 | 1620 | 1980 | 3750 | 13100 |
| 2026-04-29 14:30 | 4.85 | 609 | 13100 (2017) | 112 (2012) | 1470 | 112 | 145 | 258 | 283 | 438 | 1620 | 1980 | 3750 | 13100 |
| 2026-04-29 13:30 | 4.87 | 620 | 13100 (2017) | 112 (2012) | 1470 | 112 | 145 | 258 | 283 | 438 | 1620 | 1980 | 3750 | 13100 |
| 2026-04-29 12:30 | 4.90 | 637 | 13100 (2017) | 112 (2012) | 1470 | 112 | 145 | 258 | 283 | 438 | 1620 | 1980 | 3750 | 13100 |
| 2026-04-29 11:30 | 4.93 | 655 | 13100 (2017) | 112 (2012) | 1470 | 112 | 145 | 258 | 283 | 438 | 1620 | 1980 | 3750 | 13100 |
| 2026-04-29 10:30 | 4.96 | 666 | 13100 (2017) | 112 (2012) | 1470 | 112 | 145 | 258 | 283 | 438 | 1620 | 1980 | 3750 | 13100 |
| 2026-04-29 09:30 | 4.99 | 684 | 13100 (2017) | 112 (2012) | 1470 | 112 | 145 | 258 | 283 | 438 | 1620 | 1980 | 3750 | 13100 |
| 2026-04-29 08:30 | 5.01 | 696 | 13100 (2017) | 112 (2012) | 1470 | 112 | 145 | 258 | 283 | 438 | 1620 | 1980 | 3750 | 13100 |
| 2026-04-29 07:30 | 5.04 | 713 | 13100 (2017) | 112 (2012) | 1470 | 112 | 145 | 258 | 283 | 438 | 1620 | 1980 | 3750 | 13100 |
| 2026-04-29 06:30 | 5.08 | 738 | 13100 (2017) | 112 (2012) | 1470 | 112 | 145 | 258 | 283 | 438 | 1620 | 1980 | 3750 | 13100 |
| 2026-04-29 05:30 | 5.10 | 750 | 13100 (2017) | 112 (2012) | 1470 | 112 | 145 | 258 | 283 | 438 | 1620 | 1980 | 3750 | 13100 |
| 2026-04-29 04:30 | 5.11 | 756 | 13100 (2017) | 112 (2012) | 1470 | 112 | 145 | 258 | 283 | 438 | 1620 | 1980 | 3750 | 13100 |
| 2026-04-29 03:30 | 5.09 | 744 | 13100 (2017) | 112 (2012) | 1470 | 112 | 145 | 258 | 283 | 438 | 1620 | 1980 | 3750 | 13100 |
| 2026-04-29 02:30 | 4.99 | 684 | 13100 (2017) | 112 (2012) | 1470 | 112 | 145 | 258 | 283 | 438 | 1620 | 1980 | 3750 | 13100 |
| 2026-04-29 01:30 | 4.84 | 604 | 13100 (2017) | 112 (2012) | 1470 | 112 | 145 | 258 | 283 | 438 | 1620 | 1980 | 3750 | 13100 |
| 2026-04-29 00:30 | 4.66 | 508 | 13100 (2017) | 112 (2012) | 1470 | 112 | 145 | 258 | 283 | 438 | 1620 | 1980 | 3750 | 13100 |
| 2026-04-28 23:30 | 4.54 | 454 | 13100 (2017) | 112 (2012) | 1470 | 112 | 145 | 258 | 283 | 438 | 1620 | 1980 | 3750 | 13100 |
| 2026-04-28 22:30 | 4.51 | 439 | 6200 (2011) | 114 (2012) | 795 | 114 | 150 | 264 | 265 | 434 | 700 | 771 | 1620 | 6200 |
| 2026-04-28 21:30 | 4.48 | 425 | 6200 (2011) | 114 (2012) | 795 | 114 | 150 | 264 | 265 | 434 | 700 | 771 | 1620 | 6200 |
| 2026-04-28 20:30 | 4.46 | 416 | 6200 (2011) | 114 (2012) | 795 | 114 | 150 | 264 | 265 | 434 | 700 | 771 | 1620 | 6200 |
| 2026-04-28 19:30 | 4.44 | 407 | 6200 (2011) | 114 (2012) | 795 | 114 | 150 | 264 | 265 | 434 | 700 | 771 | 1620 | 6200 |
| 2026-04-28 18:30 | 4.43 | 402 | 6200 (2011) | 114 (2012) | 795 | 114 | 150 | 264 | 265 | 434 | 700 | 771 | 1620 | 6200 |
| 2026-04-28 17:30 | 4.43 | 402 | 6200 (2011) | 114 (2012) | 795 | 114 | 150 | 264 | 265 | 434 | 700 | 771 | 1620 | 6200 |
| 2026-04-28 16:30 | 4.42 | 398 | 6200 (2011) | 114 (2012) | 795 | 114 | 150 | 264 | 265 | 434 | 700 | 771 | 1620 | 6200 |
| 2026-04-28 15:30 | 4.42 | 398 | 6200 (2011) | 114 (2012) | 795 | 114 | 150 | 264 | 265 | 434 | 700 | 771 | 1620 | 6200 |
| 2026-04-28 14:30 | 4.42 | 398 | 6200 (2011) | 114 (2012) | 795 | 114 | 150 | 264 | 265 | 434 | 700 | 771 | 1620 | 6200 |
| 2026-04-28 13:30 | 4.42 | 398 | 6200 (2011) | 114 (2012) | 795 | 114 | 150 | 264 | 265 | 434 | 700 | 771 | 1620 | 6200 |
| 2026-04-28 12:30 | 4.44 | 407 | 6200 (2011) | 114 (2012) | 795 | 114 | 150 | 264 | 265 | 434 | 700 | 771 | 1620 | 6200 |
| 2026-04-28 11:30 | 4.44 | 407 | 6200 (2011) | 114 (2012) | 795 | 114 | 150 | 264 | 265 | 434 | 700 | 771 | 1620 | 6200 |
| 2026-04-28 10:30 | 4.46 | 416 | 6200 (2011) | 114 (2012) | 795 | 114 | 150 | 264 | 265 | 434 | 700 | 771 | 1620 | 6200 |
| 2026-04-28 09:30 | 4.46 | 416 | 6200 (2011) | 114 (2012) | 795 | 114 | 150 | 264 | 265 | 434 | 700 | 771 | 1620 | 6200 |
| 2026-04-28 08:30 | 4.48 | 425 | 6200 (2011) | 114 (2012) | 795 | 114 | 150 | 264 | 265 | 434 | 700 | 771 | 1620 | 6200 |
| 2026-04-28 07:30 | 4.48 | 425 | 6200 (2011) | 114 (2012) | 795 | 114 | 150 | 264 | 265 | 434 | 700 | 771 | 1620 | 6200 |
| 2026-04-28 06:30 | 4.47 | 420 | 6200 (2011) | 114 (2012) | 795 | 114 | 150 | 264 | 265 | 434 | 700 | 771 | 1620 | 6200 |
| 2026-04-28 05:30 | 4.44 | 407 | 6200 (2011) | 114 (2012) | 795 | 114 | 150 | 264 | 265 | 434 | 700 | 771 | 1620 | 6200 |
| 2026-04-28 04:30 | 4.42 | 398 | 6200 (2011) | 114 (2012) | 795 | 114 | 150 | 264 | 265 | 434 | 700 | 771 | 1620 | 6200 |
| 2026-04-28 03:30 | 4.39 | 384 | 6200 (2011) | 114 (2012) | 795 | 114 | 150 | 264 | 265 | 434 | 700 | 771 | 1620 | 6200 |
| 2026-04-28 02:30 | 4.37 | 375 | 6200 (2011) | 114 (2012) | 795 | 114 | 150 | 264 | 265 | 434 | 700 | 771 | 1620 | 6200 |
| 2026-04-28 01:30 | 4.37 | 375 | 6200 (2011) | 114 (2012) | 795 | 114 | 150 | 264 | 265 | 434 | 700 | 771 | 1620 | 6200 |
| 2026-04-28 00:30 | 4.37 | 375 | 6200 (2011) | 114 (2012) | 795 | 114 | 150 | 264 | 265 | 434 | 700 | 771 | 1620 | 6200 |
| 2026-04-27 23:30 | 4.38 | 380 | 6200 (2011) | 114 (2012) | 795 | 114 | 150 | 264 | 265 | 434 | 700 | 771 | 1620 | 6200 |
| 2026-04-27 22:30 | 4.40 | 389 | 4500 (2011) | 116 (2012) | 866 | 116 | 151 | 182 | 263 | 485 | 892 | 1510 | 2220 | 4500 |
| 2026-04-27 21:30 | 4.41 | 393 | 4500 (2011) | 116 (2012) | 866 | 116 | 151 | 182 | 263 | 485 | 892 | 1510 | 2220 | 4500 |
| 2026-04-27 20:30 | 4.42 | 398 | 4500 (2011) | 116 (2012) | 866 | 116 | 151 | 182 | 263 | 485 | 892 | 1510 | 2220 | 4500 |
| 2026-04-27 19:30 | 4.43 | 402 | 4500 (2011) | 116 (2012) | 866 | 116 | 151 | 182 | 263 | 485 | 892 | 1510 | 2220 | 4500 |
| 2026-04-27 18:30 | 4.45 | 411 | 4500 (2011) | 116 (2012) | 866 | 116 | 151 | 182 | 263 | 485 | 892 | 1510 | 2220 | 4500 |
| 2026-04-27 17:30 | 4.46 | 416 | 4500 (2011) | 116 (2012) | 866 | 116 | 151 | 182 | 263 | 485 | 892 | 1510 | 2220 | 4500 |
| 2026-04-27 16:30 | 4.48 | 425 | 4500 (2011) | 116 (2012) | 866 | 116 | 151 | 182 | 263 | 485 | 892 | 1510 | 2220 | 4500 |
| 2026-04-27 15:30 | 4.50 | 435 | 4500 (2011) | 116 (2012) | 866 | 116 | 151 | 182 | 263 | 485 | 892 | 1510 | 2220 | 4500 |
| 2026-04-27 14:30 | 4.52 | 444 | 4500 (2011) | 116 (2012) | 866 | 116 | 151 | 182 | 263 | 485 | 892 | 1510 | 2220 | 4500 |
| 2026-04-27 13:30 | 4.52 | 444 | 4500 (2011) | 116 (2012) | 866 | 116 | 151 | 182 | 263 | 485 | 892 | 1510 | 2220 | 4500 |
| 2026-04-27 12:30 | 4.56 | 463 | 4500 (2011) | 116 (2012) | 866 | 116 | 151 | 182 | 263 | 485 | 892 | 1510 | 2220 | 4500 |
| 2026-04-27 11:30 | 4.56 | 463 | 4500 (2011) | 116 (2012) | 866 | 116 | 151 | 182 | 263 | 485 | 892 | 1510 | 2220 | 4500 |
| 2026-04-27 10:30 | 4.60 | 483 | 4500 (2011) | 116 (2012) | 866 | 116 | 151 | 182 | 263 | 485 | 892 | 1510 | 2220 | 4500 |
| 2026-04-27 09:30 | 4.64 | 498 | 4500 (2011) | 116 (2012) | 866 | 116 | 151 | 182 | 263 | 485 | 892 | 1510 | 2220 | 4500 |
| 2026-04-27 08:30 | 4.66 | 508 | 4500 (2011) | 116 (2012) | 866 | 116 | 151 | 182 | 263 | 485 | 892 | 1510 | 2220 | 4500 |
| 2026-04-27 07:30 | 4.70 | 529 | 4500 (2011) | 116 (2012) | 866 | 116 | 151 | 182 | 263 | 485 | 892 | 1510 | 2220 | 4500 |
| 2026-04-27 06:30 | 4.71 | 534 | 4500 (2011) | 116 (2012) | 866 | 116 | 151 | 182 | 263 | 485 | 892 | 1510 | 2220 | 4500 |
| 2026-04-27 05:30 | 4.57 | 468 | 4500 (2011) | 116 (2012) | 866 | 116 | 151 | 182 | 263 | 485 | 892 | 1510 | 2220 | 4500 |
| 2026-04-27 04:30 | 4.42 | 398 | 4500 (2011) | 116 (2012) | 866 | 116 | 151 | 182 | 263 | 485 | 892 | 1510 | 2220 | 4500 |
| 2026-04-27 03:30 | 4.31 | 350 | 4500 (2011) | 116 (2012) | 866 | 116 | 151 | 182 | 263 | 485 | 892 | 1510 | 2220 | 4500 |
| 2026-04-27 02:30 | 4.27 | 337 | 4500 (2011) | 116 (2012) | 866 | 116 | 151 | 182 | 263 | 485 | 892 | 1510 | 2220 | 4500 |
| 2026-04-27 01:30 | 4.19 | 305 | 4500 (2011) | 116 (2012) | 866 | 116 | 151 | 182 | 263 | 485 | 892 | 1510 | 2220 | 4500 |
| 2026-04-27 00:30 | 4.18 | 301 | 4500 (2011) | 116 (2012) | 866 | 116 | 151 | 182 | 263 | 485 | 892 | 1510 | 2220 | 4500 |
| 2026-04-26 23:30 | 4.19 | 305 | 4500 (2011) | 116 (2012) | 866 | 116 | 151 | 182 | 263 | 485 | 892 | 1510 | 2220 | 4500 |
| 2026-04-26 22:30 | 4.20 | 308 | 5650 (2011) | 121 (2012) | 801 | 121 | 146 | 211 | 268 | 453 | 774 | 787 | 1440 | 5650 |
| 2026-04-26 21:30 | 4.21 | 312 | 5650 (2011) | 121 (2012) | 801 | 121 | 146 | 211 | 268 | 453 | 774 | 787 | 1440 | 5650 |
| 2026-04-26 20:30 | 4.21 | 312 | 5650 (2011) | 121 (2012) | 801 | 121 | 146 | 211 | 268 | 453 | 774 | 787 | 1440 | 5650 |
| 2026-04-26 19:30 | 4.22 | 316 | 5650 (2011) | 121 (2012) | 801 | 121 | 146 | 211 | 268 | 453 | 774 | 787 | 1440 | 5650 |
| 2026-04-26 18:30 | 4.23 | 321 | 5650 (2011) | 121 (2012) | 801 | 121 | 146 | 211 | 268 | 453 | 774 | 787 | 1440 | 5650 |
| 2026-04-26 17:30 | 4.23 | 321 | 5650 (2011) | 121 (2012) | 801 | 121 | 146 | 211 | 268 | 453 | 774 | 787 | 1440 | 5650 |
| 2026-04-26 16:30 | 4.24 | 325 | 5650 (2011) | 121 (2012) | 801 | 121 | 146 | 211 | 268 | 453 | 774 | 787 | 1440 | 5650 |
| 2026-04-26 15:30 | 4.25 | 329 | 5650 (2011) | 121 (2012) | 801 | 121 | 146 | 211 | 268 | 453 | 774 | 787 | 1440 | 5650 |
| 2026-04-26 14:30 | 4.26 | 333 | 5650 (2011) | 121 (2012) | 801 | 121 | 146 | 211 | 268 | 453 | 774 | 787 | 1440 | 5650 |
| 2026-04-26 13:30 | 4.26 | 333 | 5650 (2011) | 121 (2012) | 801 | 121 | 146 | 211 | 268 | 453 | 774 | 787 | 1440 | 5650 |
| 2026-04-26 12:30 | 4.26 | 333 | 5650 (2011) | 121 (2012) | 801 | 121 | 146 | 211 | 268 | 453 | 774 | 787 | 1440 | 5650 |
| 2026-04-26 11:30 | 4.27 | 337 | 5650 (2011) | 121 (2012) | 801 | 121 | 146 | 211 | 268 | 453 | 774 | 787 | 1440 | 5650 |
| 2026-04-26 10:30 | 4.27 | 337 | 5650 (2011) | 121 (2012) | 801 | 121 | 146 | 211 | 268 | 453 | 774 | 787 | 1440 | 5650 |
| 2026-04-26 09:30 | 4.30 | 345 | 5650 (2011) | 121 (2012) | 801 | 121 | 146 | 211 | 268 | 453 | 774 | 787 | 1440 | 5650 |
| 2026-04-26 08:30 | 4.30 | 345 | 5650 (2011) | 121 (2012) | 801 | 121 | 146 | 211 | 268 | 453 | 774 | 787 | 1440 | 5650 |
| 2026-04-26 07:30 | 4.32 | 354 | 5650 (2011) | 121 (2012) | 801 | 121 | 146 | 211 | 268 | 453 | 774 | 787 | 1440 | 5650 |
| 2026-04-26 06:30 | 4.32 | 354 | 5650 (2011) | 121 (2012) | 801 | 121 | 146 | 211 | 268 | 453 | 774 | 787 | 1440 | 5650 |
| 2026-04-26 05:30 | 4.34 | 362 | 5650 (2011) | 121 (2012) | 801 | 121 | 146 | 211 | 268 | 453 | 774 | 787 | 1440 | 5650 |
| 2026-04-26 04:30 | 4.34 | 362 | 5650 (2011) | 121 (2012) | 801 | 121 | 146 | 211 | 268 | 453 | 774 | 787 | 1440 | 5650 |
| 2026-04-26 03:30 | 4.35 | 367 | 5650 (2011) | 121 (2012) | 801 | 121 | 146 | 211 | 268 | 453 | 774 | 787 | 1440 | 5650 |
| 2026-04-26 02:30 | 4.37 | 375 | 5650 (2011) | 121 (2012) | 801 | 121 | 146 | 211 | 268 | 453 | 774 | 787 | 1440 | 5650 |
| 2026-04-26 01:30 | 4.38 | 380 | 5650 (2011) | 121 (2012) | 801 | 121 | 146 | 211 | 268 | 453 | 774 | 787 | 1440 | 5650 |
| 2026-04-26 00:30 | 4.38 | 380 | 5650 (2011) | 121 (2012) | 801 | 121 | 146 | 211 | 268 | 453 | 774 | 787 | 1440 | 5650 |
| 2026-04-25 23:30 | 4.40 | 389 | 5650 (2011) | 121 (2012) | 801 | 121 | 146 | 211 | 268 | 453 | 774 | 787 | 1440 | 5650 |
| 2026-04-25 22:30 | 4.41 | 393 | 4540 (2011) | 125 (2012) | 741 | 125 | 142 | 165 | 178 | 391 | 917 | 994 | 1650 | 4540 |
| 2026-04-25 21:30 | 4.43 | 402 | 4540 (2011) | 125 (2012) | 741 | 125 | 142 | 165 | 178 | 391 | 917 | 994 | 1650 | 4540 |
| 2026-04-25 20:30 | 4.44 | 407 | 4540 (2011) | 125 (2012) | 741 | 125 | 142 | 165 | 178 | 391 | 917 | 994 | 1650 | 4540 |
| 2026-04-25 19:30 | 4.45 | 411 | 4540 (2011) | 125 (2012) | 741 | 125 | 142 | 165 | 178 | 391 | 917 | 994 | 1650 | 4540 |
| 2026-04-25 18:30 | 4.46 | 416 | 4540 (2011) | 125 (2012) | 741 | 125 | 142 | 165 | 178 | 391 | 917 | 994 | 1650 | 4540 |
| 2026-04-25 17:30 | 4.47 | 420 | 4540 (2011) | 125 (2012) | 741 | 125 | 142 | 165 | 178 | 391 | 917 | 994 | 1650 | 4540 |
| 2026-04-25 16:30 | 4.49 | 430 | 4540 (2011) | 125 (2012) | 741 | 125 | 142 | 165 | 178 | 391 | 917 | 994 | 1650 | 4540 |
| 2026-04-25 15:30 | 4.51 | 439 | 4540 (2011) | 125 (2012) | 741 | 125 | 142 | 165 | 178 | 391 | 917 | 994 | 1650 | 4540 |
| 2026-04-25 14:30 | 4.51 | 439 | 4540 (2011) | 125 (2012) | 741 | 125 | 142 | 165 | 178 | 391 | 917 | 994 | 1650 | 4540 |
| 2026-04-25 13:30 | 4.53 | 449 | 4540 (2011) | 125 (2012) | 741 | 125 | 142 | 165 | 178 | 391 | 917 | 994 | 1650 | 4540 |
| 2026-04-25 12:30 | 4.55 | 458 | 4540 (2011) | 125 (2012) | 741 | 125 | 142 | 165 | 178 | 391 | 917 | 994 | 1650 | 4540 |
| 2026-04-25 11:30 | 4.55 | 458 | 4540 (2011) | 125 (2012) | 741 | 125 | 142 | 165 | 178 | 391 | 917 | 994 | 1650 | 4540 |
| 2026-04-25 10:30 | 4.57 | 468 | 4540 (2011) | 125 (2012) | 741 | 125 | 142 | 165 | 178 | 391 | 917 | 994 | 1650 | 4540 |
| 2026-04-25 09:30 | 4.59 | 478 | 4540 (2011) | 125 (2012) | 741 | 125 | 142 | 165 | 178 | 391 | 917 | 994 | 1650 | 4540 |
| 2026-04-25 08:30 | 4.59 | 478 | 4540 (2011) | 125 (2012) | 741 | 125 | 142 | 165 | 178 | 391 | 917 | 994 | 1650 | 4540 |
| 2026-04-25 07:30 | 4.60 | 483 | 4540 (2011) | 125 (2012) | 741 | 125 | 142 | 165 | 178 | 391 | 917 | 994 | 1650 | 4540 |
| 2026-04-25 06:30 | 4.63 | 493 | 4540 (2011) | 125 (2012) | 741 | 125 | 142 | 165 | 178 | 391 | 917 | 994 | 1650 | 4540 |
| 2026-04-25 05:30 | 4.64 | 498 | 4540 (2011) | 125 (2012) | 741 | 125 | 142 | 165 | 178 | 391 | 917 | 994 | 1650 | 4540 |
| 2026-04-25 04:30 | 4.64 | 498 | 4540 (2011) | 125 (2012) | 741 | 125 | 142 | 165 | 178 | 391 | 917 | 994 | 1650 | 4540 |
| 2026-04-25 03:30 | 4.63 | 493 | 4540 (2011) | 125 (2012) | 741 | 125 | 142 | 165 | 178 | 391 | 917 | 994 | 1650 | 4540 |
| 2026-04-25 02:30 | 4.63 | 493 | 4540 (2011) | 125 (2012) | 741 | 125 | 142 | 165 | 178 | 391 | 917 | 994 | 1650 | 4540 |
| 2026-04-25 01:30 | 4.62 | 488 | 4540 (2011) | 125 (2012) | 741 | 125 | 142 | 165 | 178 | 391 | 917 | 994 | 1650 | 4540 |
| 2026-04-25 00:30 | 4.62 | 488 | 4540 (2011) | 125 (2012) | 741 | 125 | 142 | 165 | 178 | 391 | 917 | 994 | 1650 | 4540 |
| 2026-04-24 23:30 | 4.60 | 483 | 4540 (2011) | 125 (2012) | 741 | 125 | 142 | 165 | 178 | 391 | 917 | 994 | 1650 | 4540 |
| 2026-04-24 22:30 | 4.59 | 478 | 4250 (2011) | 122 (2014) | 648 | 122 | 130 | 154 | 169 | 412 | 685 | 866 | 1080 | 4250 |
| 2026-04-24 21:30 | 4.59 | 478 | 4250 (2011) | 122 (2014) | 648 | 122 | 130 | 154 | 169 | 412 | 685 | 866 | 1080 | 4250 |
| 2026-04-24 20:30 | 4.59 | 478 | 4250 (2011) | 122 (2014) | 648 | 122 | 130 | 154 | 169 | 412 | 685 | 866 | 1080 | 4250 |
| 2026-04-24 19:30 | 4.58 | 473 | 4250 (2011) | 122 (2014) | 648 | 122 | 130 | 154 | 169 | 412 | 685 | 866 | 1080 | 4250 |
| 2026-04-24 18:30 | 4.59 | 478 | 4250 (2011) | 122 (2014) | 648 | 122 | 130 | 154 | 169 | 412 | 685 | 866 | 1080 | 4250 |
| 2026-04-24 17:30 | 4.58 | 473 | 4250 (2011) | 122 (2014) | 648 | 122 | 130 | 154 | 169 | 412 | 685 | 866 | 1080 | 4250 |
| 2026-04-24 16:30 | 4.53 | 449 | 4250 (2011) | 122 (2014) | 648 | 122 | 130 | 154 | 169 | 412 | 685 | 866 | 1080 | 4250 |
| 2026-04-24 15:30 | 4.35 | 367 | 4250 (2011) | 122 (2014) | 648 | 122 | 130 | 154 | 169 | 412 | 685 | 866 | 1080 | 4250 |
| 2026-04-24 14:30 | 4.33 | 358 | 4250 (2011) | 122 (2014) | 648 | 122 | 130 | 154 | 169 | 412 | 685 | 866 | 1080 | 4250 |
| 2026-04-24 13:30 | 4.33 | 358 | 4250 (2011) | 122 (2014) | 648 | 122 | 130 | 154 | 169 | 412 | 685 | 866 | 1080 | 4250 |
| 2026-04-24 12:30 | 4.30 | 345 | 4250 (2011) | 122 (2014) | 648 | 122 | 130 | 154 | 169 | 412 | 685 | 866 | 1080 | 4250 |
| 2026-04-24 11:30 | 4.22 | 316 | 4250 (2011) | 122 (2014) | 648 | 122 | 130 | 154 | 169 | 412 | 685 | 866 | 1080 | 4250 |
| 2026-04-24 10:30 | 4.16 | 293 | 4250 (2011) | 122 (2014) | 648 | 122 | 130 | 154 | 169 | 412 | 685 | 866 | 1080 | 4250 |
| 2026-04-24 09:30 | 4.10 | 270 | 4250 (2011) | 122 (2014) | 648 | 122 | 130 | 154 | 169 | 412 | 685 | 866 | 1080 | 4250 |
| 2026-04-24 08:30 | 4.09 | 266 | 4250 (2011) | 122 (2014) | 648 | 122 | 130 | 154 | 169 | 412 | 685 | 866 | 1080 | 4250 |
| 2026-04-24 07:30 | 4.08 | 263 | 4250 (2011) | 122 (2014) | 648 | 122 | 130 | 154 | 169 | 412 | 685 | 866 | 1080 | 4250 |
| 2026-04-24 06:30 | 4.06 | 255 | 4250 (2011) | 122 (2014) | 648 | 122 | 130 | 154 | 169 | 412 | 685 | 866 | 1080 | 4250 |
| 2026-04-24 05:30 | 4.05 | 252 | 4250 (2011) | 122 (2014) | 648 | 122 | 130 | 154 | 169 | 412 | 685 | 866 | 1080 | 4250 |
| 2026-04-24 04:30 | 4.05 | 252 | 4250 (2011) | 122 (2014) | 648 | 122 | 130 | 154 | 169 | 412 | 685 | 866 | 1080 | 4250 |
| 2026-04-24 03:30 | 4.01 | 237 | 4250 (2011) | 122 (2014) | 648 | 122 | 130 | 154 | 169 | 412 | 685 | 866 | 1080 | 4250 |
| 2026-04-24 02:30 | 4.00 | 234 | 4250 (2011) | 122 (2014) | 648 | 122 | 130 | 154 | 169 | 412 | 685 | 866 | 1080 | 4250 |
| 2026-04-24 01:30 | 4.01 | 237 | 4250 (2011) | 122 (2014) | 648 | 122 | 130 | 154 | 169 | 412 | 685 | 866 | 1080 | 4250 |
| 2026-04-24 00:30 | 4.00 | 234 | 4250 (2011) | 122 (2014) | 648 | 122 | 130 | 154 | 169 | 412 | 685 | 866 | 1080 | 4250 |
| 2026-04-23 23:30 | 4.01 | 237 | 4250 (2011) | 122 (2014) | 648 | 122 | 130 | 154 | 169 | 412 | 685 | 866 | 1080 | 4250 |
| 2026-04-23 22:30 | 4.01 | 237 | 2270 (2011) | 124 (2014) | 494 | 124 | 138 | 162 | 175 | 319 | 712 | 727 | 869 | 2270 |
| 2026-04-23 21:30 | 4.01 | 237 | 2270 (2011) | 124 (2014) | 494 | 124 | 138 | 162 | 175 | 319 | 712 | 727 | 869 | 2270 |
| 2026-04-23 20:30 | 4.02 | 241 | 2270 (2011) | 124 (2014) | 494 | 124 | 138 | 162 | 175 | 319 | 712 | 727 | 869 | 2270 |
| 2026-04-23 19:30 | 4.03 | 244 | 2270 (2011) | 124 (2014) | 494 | 124 | 138 | 162 | 175 | 319 | 712 | 727 | 869 | 2270 |
| 2026-04-23 18:30 | 4.03 | 244 | 2270 (2011) | 124 (2014) | 494 | 124 | 138 | 162 | 175 | 319 | 712 | 727 | 869 | 2270 |
| 2026-04-23 17:30 | 4.03 | 244 | 2270 (2011) | 124 (2014) | 494 | 124 | 138 | 162 | 175 | 319 | 712 | 727 | 869 | 2270 |
| 2026-04-23 16:30 | 4.04 | 248 | 2270 (2011) | 124 (2014) | 494 | 124 | 138 | 162 | 175 | 319 | 712 | 727 | 869 | 2270 |
| 2026-04-23 15:30 | 4.04 | 248 | 2270 (2011) | 124 (2014) | 494 | 124 | 138 | 162 | 175 | 319 | 712 | 727 | 869 | 2270 |
| 2026-04-23 14:30 | 4.05 | 252 | 2270 (2011) | 124 (2014) | 494 | 124 | 138 | 162 | 175 | 319 | 712 | 727 | 869 | 2270 |
| 2026-04-23 13:30 | 4.05 | 252 | 2270 (2011) | 124 (2014) | 494 | 124 | 138 | 162 | 175 | 319 | 712 | 727 | 869 | 2270 |
| 2026-04-23 12:30 | 4.06 | 255 | 2270 (2011) | 124 (2014) | 494 | 124 | 138 | 162 | 175 | 319 | 712 | 727 | 869 | 2270 |
| 2026-04-23 11:30 | 4.06 | 255 | 2270 (2011) | 124 (2014) | 494 | 124 | 138 | 162 | 175 | 319 | 712 | 727 | 869 | 2270 |
| 2026-04-23 10:30 | 4.06 | 255 | 2270 (2011) | 124 (2014) | 494 | 124 | 138 | 162 | 175 | 319 | 712 | 727 | 869 | 2270 |
| 2026-04-23 09:30 | 4.07 | 259 | 2270 (2011) | 124 (2014) | 494 | 124 | 138 | 162 | 175 | 319 | 712 | 727 | 869 | 2270 |
| 2026-04-23 08:30 | 4.07 | 259 | 2270 (2011) | 124 (2014) | 494 | 124 | 138 | 162 | 175 | 319 | 712 | 727 | 869 | 2270 |
| 2026-04-23 07:30 | 4.08 | 263 | 2270 (2011) | 124 (2014) | 494 | 124 | 138 | 162 | 175 | 319 | 712 | 727 | 869 | 2270 |
| 2026-04-23 06:30 | 4.08 | 263 | 2270 (2011) | 124 (2014) | 494 | 124 | 138 | 162 | 175 | 319 | 712 | 727 | 869 | 2270 |
| 2026-04-23 05:30 | 4.08 | 263 | 2270 (2011) | 124 (2014) | 494 | 124 | 138 | 162 | 175 | 319 | 712 | 727 | 869 | 2270 |
| 2026-04-23 04:30 | 4.09 | 266 | 2270 (2011) | 124 (2014) | 494 | 124 | 138 | 162 | 175 | 319 | 712 | 727 | 869 | 2270 |
| 2026-04-23 03:30 | 4.10 | 270 | 2270 (2011) | 124 (2014) | 494 | 124 | 138 | 162 | 175 | 319 | 712 | 727 | 869 | 2270 |
| 2026-04-23 02:30 | 4.10 | 270 | 2270 (2011) | 124 (2014) | 494 | 124 | 138 | 162 | 175 | 319 | 712 | 727 | 869 | 2270 |
| 2026-04-23 01:30 | 4.10 | 270 | 2270 (2011) | 124 (2014) | 494 | 124 | 138 | 162 | 175 | 319 | 712 | 727 | 869 | 2270 |
| 2026-04-23 00:30 | 4.12 | 277 | 2270 (2011) | 124 (2014) | 494 | 124 | 138 | 162 | 175 | 319 | 712 | 727 | 869 | 2270 |
| 2026-04-22 23:30 | 4.11 | 274 | 2270 (2011) | 124 (2014) | 494 | 124 | 138 | 162 | 175 | 319 | 712 | 727 | 869 | 2270 |
| 2026-04-22 22:30 | 4.11 | 274 | 1270 (2025) | 131 (2014) | 393 | 131 | 147 | 172 | 184 | 310 | 485 | 495 | 766 | 1270 |
| 2026-04-22 21:30 | 4.12 | 277 | 1270 (2025) | 131 (2014) | 393 | 131 | 147 | 172 | 184 | 310 | 485 | 495 | 766 | 1270 |
| 2026-04-22 20:30 | 4.13 | 281 | 1270 (2025) | 131 (2014) | 393 | 131 | 147 | 172 | 184 | 310 | 485 | 495 | 766 | 1270 |
| 2026-04-22 19:30 | 4.13 | 281 | 1270 (2025) | 131 (2014) | 393 | 131 | 147 | 172 | 184 | 310 | 485 | 495 | 766 | 1270 |
| 2026-04-22 18:30 | 4.14 | 285 | 1270 (2025) | 131 (2014) | 393 | 131 | 147 | 172 | 184 | 310 | 485 | 495 | 766 | 1270 |
| 2026-04-22 17:30 | 4.14 | 285 | 1270 (2025) | 131 (2014) | 393 | 131 | 147 | 172 | 184 | 310 | 485 | 495 | 766 | 1270 |
| 2026-04-22 16:30 | 4.15 | 289 | 1270 (2025) | 131 (2014) | 393 | 131 | 147 | 172 | 184 | 310 | 485 | 495 | 766 | 1270 |
| 2026-04-22 15:30 | 4.15 | 289 | 1270 (2025) | 131 (2014) | 393 | 131 | 147 | 172 | 184 | 310 | 485 | 495 | 766 | 1270 |
| 2026-04-22 14:30 | 4.16 | 293 | 1270 (2025) | 131 (2014) | 393 | 131 | 147 | 172 | 184 | 310 | 485 | 495 | 766 | 1270 |
| 2026-04-22 13:30 | 4.17 | 297 | 1270 (2025) | 131 (2014) | 393 | 131 | 147 | 172 | 184 | 310 | 485 | 495 | 766 | 1270 |
| 2026-04-22 12:30 | 4.17 | 297 | 1270 (2025) | 131 (2014) | 393 | 131 | 147 | 172 | 184 | 310 | 485 | 495 | 766 | 1270 |
| 2026-04-22 11:30 | 4.18 | 301 | 1270 (2025) | 131 (2014) | 393 | 131 | 147 | 172 | 184 | 310 | 485 | 495 | 766 | 1270 |
| 2026-04-22 10:30 | 4.18 | 301 | 1270 (2025) | 131 (2014) | 393 | 131 | 147 | 172 | 184 | 310 | 485 | 495 | 766 | 1270 |
| 2026-04-22 09:30 | 4.19 | 305 | 1270 (2025) | 131 (2014) | 393 | 131 | 147 | 172 | 184 | 310 | 485 | 495 | 766 | 1270 |
| 2026-04-22 08:30 | 4.19 | 305 | 1270 (2025) | 131 (2014) | 393 | 131 | 147 | 172 | 184 | 310 | 485 | 495 | 766 | 1270 |
| 2026-04-22 07:30 | 4.20 | 308 | 1270 (2025) | 131 (2014) | 393 | 131 | 147 | 172 | 184 | 310 | 485 | 495 | 766 | 1270 |
| 2026-04-22 06:30 | 4.21 | 312 | 1270 (2025) | 131 (2014) | 393 | 131 | 147 | 172 | 184 | 310 | 485 | 495 | 766 | 1270 |
| 2026-04-22 05:30 | 4.21 | 312 | 1270 (2025) | 131 (2014) | 393 | 131 | 147 | 172 | 184 | 310 | 485 | 495 | 766 | 1270 |
| 2026-04-22 04:30 | 4.22 | 316 | 1270 (2025) | 131 (2014) | 393 | 131 | 147 | 172 | 184 | 310 | 485 | 495 | 766 | 1270 |
| 2026-04-22 03:30 | 4.23 | 321 | 1270 (2025) | 131 (2014) | 393 | 131 | 147 | 172 | 184 | 310 | 485 | 495 | 766 | 1270 |
| 2026-04-22 02:30 | 4.23 | 321 | 1270 (2025) | 131 (2014) | 393 | 131 | 147 | 172 | 184 | 310 | 485 | 495 | 766 | 1270 |
| 2026-04-22 01:30 | 4.24 | 325 | 1270 (2025) | 131 (2014) | 393 | 131 | 147 | 172 | 184 | 310 | 485 | 495 | 766 | 1270 |
| 2026-04-22 00:30 | 4.24 | 325 | 1270 (2025) | 131 (2014) | 393 | 131 | 147 | 172 | 184 | 310 | 485 | 495 | 766 | 1270 |
| 2026-04-21 23:30 | 4.25 | 329 | 1270 (2025) | 131 (2014) | 393 | 131 | 147 | 172 | 184 | 310 | 485 | 495 | 766 | 1270 |
| 2026-04-21 22:30 | 4.26 | 333 | 2910 (2025) | 136 (2014) | 511 | 136 | 154 | 163 | 180 | 278 | 528 | 537 | 1360 | 2910 |
| 2026-04-21 21:30 | 4.27 | 337 | 2910 (2025) | 136 (2014) | 511 | 136 | 154 | 163 | 180 | 278 | 528 | 537 | 1360 | 2910 |
| 2026-04-21 20:30 | 4.28 | 341 | 2910 (2025) | 136 (2014) | 511 | 136 | 154 | 163 | 180 | 278 | 528 | 537 | 1360 | 2910 |
| 2026-04-21 19:30 | 4.30 | 345 | 2910 (2025) | 136 (2014) | 511 | 136 | 154 | 163 | 180 | 278 | 528 | 537 | 1360 | 2910 |
| 2026-04-21 18:30 | 4.28 | 341 | 2910 (2025) | 136 (2014) | 511 | 136 | 154 | 163 | 180 | 278 | 528 | 537 | 1360 | 2910 |
| 2026-04-21 17:30 | 4.31 | 350 | 2910 (2025) | 136 (2014) | 511 | 136 | 154 | 163 | 180 | 278 | 528 | 537 | 1360 | 2910 |
| 2026-04-21 16:30 | 4.32 | 354 | 2910 (2025) | 136 (2014) | 511 | 136 | 154 | 163 | 180 | 278 | 528 | 537 | 1360 | 2910 |
| 2026-04-21 15:30 | 4.33 | 358 | 2910 (2025) | 136 (2014) | 511 | 136 | 154 | 163 | 180 | 278 | 528 | 537 | 1360 | 2910 |
| 2026-04-21 14:30 | 4.34 | 362 | 2910 (2025) | 136 (2014) | 511 | 136 | 154 | 163 | 180 | 278 | 528 | 537 | 1360 | 2910 |
| 2026-04-21 13:30 | 4.34 | 362 | 2910 (2025) | 136 (2014) | 511 | 136 | 154 | 163 | 180 | 278 | 528 | 537 | 1360 | 2910 |
| 2026-04-21 12:30 | 4.35 | 367 | 2910 (2025) | 136 (2014) | 511 | 136 | 154 | 163 | 180 | 278 | 528 | 537 | 1360 | 2910 |
| 2026-04-21 11:30 | 4.35 | 367 | 2910 (2025) | 136 (2014) | 511 | 136 | 154 | 163 | 180 | 278 | 528 | 537 | 1360 | 2910 |
| 2026-04-21 10:30 | 4.36 | 371 | 2910 (2025) | 136 (2014) | 511 | 136 | 154 | 163 | 180 | 278 | 528 | 537 | 1360 | 2910 |
| 2026-04-21 09:30 | 4.38 | 380 | 2910 (2025) | 136 (2014) | 511 | 136 | 154 | 163 | 180 | 278 | 528 | 537 | 1360 | 2910 |
| 2026-04-21 08:30 | 4.39 | 384 | 2910 (2025) | 136 (2014) | 511 | 136 | 154 | 163 | 180 | 278 | 528 | 537 | 1360 | 2910 |
| 2026-04-21 07:30 | 4.40 | 389 | 2910 (2025) | 136 (2014) | 511 | 136 | 154 | 163 | 180 | 278 | 528 | 537 | 1360 | 2910 |
| 2026-04-21 06:30 | 4.41 | 393 | 2910 (2025) | 136 (2014) | 511 | 136 | 154 | 163 | 180 | 278 | 528 | 537 | 1360 | 2910 |
| 2026-04-21 05:30 | 4.41 | 393 | 2910 (2025) | 136 (2014) | 511 | 136 | 154 | 163 | 180 | 278 | 528 | 537 | 1360 | 2910 |
| 2026-04-21 04:30 | 4.43 | 402 | 2910 (2025) | 136 (2014) | 511 | 136 | 154 | 163 | 180 | 278 | 528 | 537 | 1360 | 2910 |
| 2026-04-21 03:30 | 4.43 | 402 | 2910 (2025) | 136 (2014) | 511 | 136 | 154 | 163 | 180 | 278 | 528 | 537 | 1360 | 2910 |
| 2026-04-21 02:30 | 4.44 | 407 | 2910 (2025) | 136 (2014) | 511 | 136 | 154 | 163 | 180 | 278 | 528 | 537 | 1360 | 2910 |
| 2026-04-21 01:30 | 4.46 | 416 | 2910 (2025) | 136 (2014) | 511 | 136 | 154 | 163 | 180 | 278 | 528 | 537 | 1360 | 2910 |
| 2026-04-21 00:30 | 4.47 | 420 | 2910 (2025) | 136 (2014) | 511 | 136 | 154 | 163 | 180 | 278 | 528 | 537 | 1360 | 2910 |
| 2026-04-20 23:30 | 4.48 | 425 | 2910 (2025) | 136 (2014) | 511 | 136 | 154 | 163 | 180 | 278 | 528 | 537 | 1360 | 2910 |
| 2026-04-20 22:30 | 4.50 | 435 | 3330 (2009) | 142 (2017) | 650 | 142 | 144 | 175 | 181 | 315 | 563 | 593 | 2820 | 3330 |
| 2026-04-20 21:30 | 4.51 | 439 | 3330 (2009) | 142 (2017) | 650 | 142 | 144 | 175 | 181 | 315 | 563 | 593 | 2820 | 3330 |
| 2026-04-20 20:30 | 4.52 | 444 | 3330 (2009) | 142 (2017) | 650 | 142 | 144 | 175 | 181 | 315 | 563 | 593 | 2820 | 3330 |
| 2026-04-20 19:30 | 4.54 | 454 | 3330 (2009) | 142 (2017) | 650 | 142 | 144 | 175 | 181 | 315 | 563 | 593 | 2820 | 3330 |
| 2026-04-20 18:30 | 4.55 | 458 | 3330 (2009) | 142 (2017) | 650 | 142 | 144 | 175 | 181 | 315 | 563 | 593 | 2820 | 3330 |
| 2026-04-20 17:30 | 4.56 | 463 | 3330 (2009) | 142 (2017) | 650 | 142 | 144 | 175 | 181 | 315 | 563 | 593 | 2820 | 3330 |
| 2026-04-20 16:30 | 4.57 | 468 | 3330 (2009) | 142 (2017) | 650 | 142 | 144 | 175 | 181 | 315 | 563 | 593 | 2820 | 3330 |
| 2026-04-20 15:30 | 4.59 | 478 | 3330 (2009) | 142 (2017) | 650 | 142 | 144 | 175 | 181 | 315 | 563 | 593 | 2820 | 3330 |
| 2026-04-20 14:30 | 4.59 | 478 | 3330 (2009) | 142 (2017) | 650 | 142 | 144 | 175 | 181 | 315 | 563 | 593 | 2820 | 3330 |
| 2026-04-20 13:30 | 4.60 | 483 | 3330 (2009) | 142 (2017) | 650 | 142 | 144 | 175 | 181 | 315 | 563 | 593 | 2820 | 3330 |
| 2026-04-20 12:30 | 4.64 | 498 | 3330 (2009) | 142 (2017) | 650 | 142 | 144 | 175 | 181 | 315 | 563 | 593 | 2820 | 3330 |
| 2026-04-20 11:30 | 4.65 | 503 | 3330 (2009) | 142 (2017) | 650 | 142 | 144 | 175 | 181 | 315 | 563 | 593 | 2820 | 3330 |
| 2026-04-20 10:30 | 4.67 | 513 | 3330 (2009) | 142 (2017) | 650 | 142 | 144 | 175 | 181 | 315 | 563 | 593 | 2820 | 3330 |
| 2026-04-20 09:30 | 4.69 | 523 | 3330 (2009) | 142 (2017) | 650 | 142 | 144 | 175 | 181 | 315 | 563 | 593 | 2820 | 3330 |
| 2026-04-20 08:30 | 4.72 | 539 | 3330 (2009) | 142 (2017) | 650 | 142 | 144 | 175 | 181 | 315 | 563 | 593 | 2820 | 3330 |
| 2026-04-20 07:30 | 4.73 | 544 | 3330 (2009) | 142 (2017) | 650 | 142 | 144 | 175 | 181 | 315 | 563 | 593 | 2820 | 3330 |
| 2026-04-20 06:30 | 4.75 | 555 | 3330 (2009) | 142 (2017) | 650 | 142 | 144 | 175 | 181 | 315 | 563 | 593 | 2820 | 3330 |
| 2026-04-20 05:30 | 4.77 | 565 | 3330 (2009) | 142 (2017) | 650 | 142 | 144 | 175 | 181 | 315 | 563 | 593 | 2820 | 3330 |
| 2026-04-20 04:30 | 4.79 | 576 | 3330 (2009) | 142 (2017) | 650 | 142 | 144 | 175 | 181 | 315 | 563 | 593 | 2820 | 3330 |
| 2026-04-20 03:30 | 4.81 | 587 | 3330 (2009) | 142 (2017) | 650 | 142 | 144 | 175 | 181 | 315 | 563 | 593 | 2820 | 3330 |
| 2026-04-20 02:30 | 4.83 | 598 | 3330 (2009) | 142 (2017) | 650 | 142 | 144 | 175 | 181 | 315 | 563 | 593 | 2820 | 3330 |
| 2026-04-20 01:30 | 4.85 | 609 | 3330 (2009) | 142 (2017) | 650 | 142 | 144 | 175 | 181 | 315 | 563 | 593 | 2820 | 3330 |
| 2026-04-20 00:30 | 4.87 | 620 | 3330 (2009) | 142 (2017) | 650 | 142 | 144 | 175 | 181 | 315 | 563 | 593 | 2820 | 3330 |
| 2026-04-19 23:30 | 4.90 | 637 | 3330 (2009) | 142 (2017) | 650 | 142 | 144 | 175 | 181 | 315 | 563 | 593 | 2820 | 3330 |
| 2026-04-19 22:30 | 4.92 | 649 | 5600 (2013) | 153 (2017) | 787 | 153 | 154 | 181 | 181 | 348 | 626 | 647 | 2960 | 5600 |
| 2026-04-19 21:30 | 4.96 | 666 | 5600 (2013) | 153 (2017) | 787 | 153 | 154 | 181 | 181 | 348 | 626 | 647 | 2960 | 5600 |
| 2026-04-19 20:30 | 4.99 | 684 | 5600 (2013) | 153 (2017) | 787 | 153 | 154 | 181 | 181 | 348 | 626 | 647 | 2960 | 5600 |
| 2026-04-19 19:30 | 5.01 | 696 | 5600 (2013) | 153 (2017) | 787 | 153 | 154 | 181 | 181 | 348 | 626 | 647 | 2960 | 5600 |
| 2026-04-19 18:30 | 5.04 | 713 | 5600 (2013) | 153 (2017) | 787 | 153 | 154 | 181 | 181 | 348 | 626 | 647 | 2960 | 5600 |
| 2026-04-19 17:30 | 5.08 | 738 | 5600 (2013) | 153 (2017) | 787 | 153 | 154 | 181 | 181 | 348 | 626 | 647 | 2960 | 5600 |
| 2026-04-19 16:30 | 5.09 | 744 | 5600 (2013) | 153 (2017) | 787 | 153 | 154 | 181 | 181 | 348 | 626 | 647 | 2960 | 5600 |
| 2026-04-19 15:30 | 5.13 | 769 | 5600 (2013) | 153 (2017) | 787 | 153 | 154 | 181 | 181 | 348 | 626 | 647 | 2960 | 5600 |
| 2026-04-19 14:30 | 5.17 | 794 | 5600 (2013) | 153 (2017) | 787 | 153 | 154 | 181 | 181 | 348 | 626 | 647 | 2960 | 5600 |
| 2026-04-19 13:30 | 5.20 | 813 | 5600 (2013) | 153 (2017) | 787 | 153 | 154 | 181 | 181 | 348 | 626 | 647 | 2960 | 5600 |
| 2026-04-19 12:30 | 5.25 | 845 | 5600 (2013) | 153 (2017) | 787 | 153 | 154 | 181 | 181 | 348 | 626 | 647 | 2960 | 5600 |
| 2026-04-19 11:30 | 5.29 | 865 | 5600 (2013) | 153 (2017) | 787 | 153 | 154 | 181 | 181 | 348 | 626 | 647 | 2960 | 5600 |
| 2026-04-19 10:30 | 5.32 | 885 | 5600 (2013) | 153 (2017) | 787 | 153 | 154 | 181 | 181 | 348 | 626 | 647 | 2960 | 5600 |
| 2026-04-19 09:30 | 5.38 | 926 | 5600 (2013) | 153 (2017) | 787 | 153 | 154 | 181 | 181 | 348 | 626 | 647 | 2960 | 5600 |
| 2026-04-19 08:30 | 5.42 | 953 | 5600 (2013) | 153 (2017) | 787 | 153 | 154 | 181 | 181 | 348 | 626 | 647 | 2960 | 5600 |
| 2026-04-19 07:30 | 5.47 | 988 | 5600 (2013) | 153 (2017) | 787 | 153 | 154 | 181 | 181 | 348 | 626 | 647 | 2960 | 5600 |
| 2026-04-19 06:30 | 5.54 | 1040 | 5600 (2013) | 153 (2017) | 787 | 153 | 154 | 181 | 181 | 348 | 626 | 647 | 2960 | 5600 |
| 2026-04-19 05:30 | 5.59 | 1070 | 5600 (2013) | 153 (2017) | 787 | 153 | 154 | 181 | 181 | 348 | 626 | 647 | 2960 | 5600 |
| 2026-04-19 04:30 | 5.66 | 1120 | 5600 (2013) | 153 (2017) | 787 | 153 | 154 | 181 | 181 | 348 | 626 | 647 | 2960 | 5600 |
| 2026-04-19 03:30 | 5.70 | 1150 | 5600 (2013) | 153 (2017) | 787 | 153 | 154 | 181 | 181 | 348 | 626 | 647 | 2960 | 5600 |
| 2026-04-19 02:30 | 5.79 | 1220 | 5600 (2013) | 153 (2017) | 787 | 153 | 154 | 181 | 181 | 348 | 626 | 647 | 2960 | 5600 |
| 2026-04-19 01:30 | 5.87 | 1280 | 5600 (2013) | 153 (2017) | 787 | 153 | 154 | 181 | 181 | 348 | 626 | 647 | 2960 | 5600 |
| 2026-04-19 00:30 | 5.95 | 1340 | 5600 (2013) | 153 (2017) | 787 | 153 | 154 | 181 | 181 | 348 | 626 | 647 | 2960 | 5600 |
| 2026-04-18 23:30 | 5.99 | 1370 | 5600 (2013) | 153 (2017) | 787 | 153 | 154 | 181 | 181 | 348 | 626 | 647 | 2960 | 5600 |
| 2026-04-18 22:30 | 6.08 | 1450 | 5630 (2013) | 163 (2017) | 613 | 163 | 163 | 168 | 202 | 294 | 434 | 516 | 783 | 5630 |
| 2026-04-18 21:30 | 6.17 | 1530 | 5630 (2013) | 163 (2017) | 613 | 163 | 163 | 168 | 202 | 294 | 434 | 516 | 783 | 5630 |
| 2026-04-18 20:30 | 6.18 | 1530 | 5630 (2013) | 163 (2017) | 613 | 163 | 163 | 168 | 202 | 294 | 434 | 516 | 783 | 5630 |
| 2026-04-18 19:30 | 6.25 | 1600 | 5630 (2013) | 163 (2017) | 613 | 163 | 163 | 168 | 202 | 294 | 434 | 516 | 783 | 5630 |
| 2026-04-18 18:30 | 6.24 | 1590 | 5630 (2013) | 163 (2017) | 613 | 163 | 163 | 168 | 202 | 294 | 434 | 516 | 783 | 5630 |
| 2026-04-18 17:30 | 6.22 | 1570 | 5630 (2013) | 163 (2017) | 613 | 163 | 163 | 168 | 202 | 294 | 434 | 516 | 783 | 5630 |
| 2026-04-18 16:30 | 6.12 | 1480 | 5630 (2013) | 163 (2017) | 613 | 163 | 163 | 168 | 202 | 294 | 434 | 516 | 783 | 5630 |
| 2026-04-18 15:30 | 6.03 | 1410 | 5630 (2013) | 163 (2017) | 613 | 163 | 163 | 168 | 202 | 294 | 434 | 516 | 783 | 5630 |
| 2026-04-18 14:30 | 5.95 | 1340 | 5630 (2013) | 163 (2017) | 613 | 163 | 163 | 168 | 202 | 294 | 434 | 516 | 783 | 5630 |
| 2026-04-18 13:30 | 5.87 | 1280 | 5630 (2013) | 163 (2017) | 613 | 163 | 163 | 168 | 202 | 294 | 434 | 516 | 783 | 5630 |
| 2026-04-18 12:30 | 5.81 | 1230 | 5630 (2013) | 163 (2017) | 613 | 163 | 163 | 168 | 202 | 294 | 434 | 516 | 783 | 5630 |
| 2026-04-18 11:30 | 5.69 | 1140 | 5630 (2013) | 163 (2017) | 613 | 163 | 163 | 168 | 202 | 294 | 434 | 516 | 783 | 5630 |
| 2026-04-18 10:30 | 5.48 | 995 | 5630 (2013) | 163 (2017) | 613 | 163 | 163 | 168 | 202 | 294 | 434 | 516 | 783 | 5630 |
| 2026-04-18 09:30 | 5.22 | 826 | 5630 (2013) | 163 (2017) | 613 | 163 | 163 | 168 | 202 | 294 | 434 | 516 | 783 | 5630 |
| 2026-04-18 08:30 | 4.78 | 571 | 5630 (2013) | 163 (2017) | 613 | 163 | 163 | 168 | 202 | 294 | 434 | 516 | 783 | 5630 |
| 2026-04-18 07:30 | 4.65 | 503 | 5630 (2013) | 163 (2017) | 613 | 163 | 163 | 168 | 202 | 294 | 434 | 516 | 783 | 5630 |
| 2026-04-18 06:30 | 4.53 | 449 | 5630 (2013) | 163 (2017) | 613 | 163 | 163 | 168 | 202 | 294 | 434 | 516 | 783 | 5630 |
| 2026-04-18 05:30 | 4.45 | 411 | 5630 (2013) | 163 (2017) | 613 | 163 | 163 | 168 | 202 | 294 | 434 | 516 | 783 | 5630 |
| 2026-04-18 04:30 | 4.41 | 393 | 5630 (2013) | 163 (2017) | 613 | 163 | 163 | 168 | 202 | 294 | 434 | 516 | 783 | 5630 |
| 2026-04-18 03:30 | 4.39 | 384 | 5630 (2013) | 163 (2017) | 613 | 163 | 163 | 168 | 202 | 294 | 434 | 516 | 783 | 5630 |
| 2026-04-18 02:30 | 4.37 | 375 | 5630 (2013) | 163 (2017) | 613 | 163 | 163 | 168 | 202 | 294 | 434 | 516 | 783 | 5630 |
| 2026-04-18 01:30 | 4.36 | 371 | 5630 (2013) | 163 (2017) | 613 | 163 | 163 | 168 | 202 | 294 | 434 | 516 | 783 | 5630 |
| 2026-04-18 00:30 | 4.35 | 367 | 5630 (2013) | 163 (2017) | 613 | 163 | 163 | 168 | 202 | 294 | 434 | 516 | 783 | 5630 |
| 2026-04-17 23:30 | 4.35 | 367 | 5630 (2013) | 163 (2017) | 613 | 163 | 163 | 168 | 202 | 294 | 434 | 516 | 783 | 5630 |
| 2026-04-17 22:30 | 4.34 | 362 | 899 (2022) | 165 (2024) | 367 | 165 | 174 | 182 | 225 | 300 | 468 | 565 | 607 | 899 |
| 2026-04-17 21:30 | 4.35 | 367 | 899 (2022) | 165 (2024) | 367 | 165 | 174 | 182 | 225 | 300 | 468 | 565 | 607 | 899 |
| 2026-04-17 20:30 | 4.36 | 371 | 899 (2022) | 165 (2024) | 367 | 165 | 174 | 182 | 225 | 300 | 468 | 565 | 607 | 899 |
| 2026-04-17 19:30 | 4.36 | 371 | 899 (2022) | 165 (2024) | 367 | 165 | 174 | 182 | 225 | 300 | 468 | 565 | 607 | 899 |
| 2026-04-17 18:30 | 4.37 | 375 | 899 (2022) | 165 (2024) | 367 | 165 | 174 | 182 | 225 | 300 | 468 | 565 | 607 | 899 |
| 2026-04-17 17:30 | 4.38 | 380 | 899 (2022) | 165 (2024) | 367 | 165 | 174 | 182 | 225 | 300 | 468 | 565 | 607 | 899 |
| 2026-04-17 16:30 | 4.40 | 389 | 899 (2022) | 165 (2024) | 367 | 165 | 174 | 182 | 225 | 300 | 468 | 565 | 607 | 899 |
| 2026-04-17 15:30 | 4.40 | 389 | 899 (2022) | 165 (2024) | 367 | 165 | 174 | 182 | 225 | 300 | 468 | 565 | 607 | 899 |
| 2026-04-17 14:30 | 4.41 | 393 | 899 (2022) | 165 (2024) | 367 | 165 | 174 | 182 | 225 | 300 | 468 | 565 | 607 | 899 |
| 2026-04-17 13:30 | 4.43 | 402 | 899 (2022) | 165 (2024) | 367 | 165 | 174 | 182 | 225 | 300 | 468 | 565 | 607 | 899 |
| 2026-04-17 12:30 | 4.42 | 398 | 899 (2022) | 165 (2024) | 367 | 165 | 174 | 182 | 225 | 300 | 468 | 565 | 607 | 899 |
| 2026-04-17 11:30 | 4.44 | 407 | 899 (2022) | 165 (2024) | 367 | 165 | 174 | 182 | 225 | 300 | 468 | 565 | 607 | 899 |
| 2026-04-17 10:30 | 4.44 | 407 | 899 (2022) | 165 (2024) | 367 | 165 | 174 | 182 | 225 | 300 | 468 | 565 | 607 | 899 |
| 2026-04-17 09:30 | 4.46 | 416 | 899 (2022) | 165 (2024) | 367 | 165 | 174 | 182 | 225 | 300 | 468 | 565 | 607 | 899 |
| 2026-04-17 08:30 | 4.47 | 420 | 899 (2022) | 165 (2024) | 367 | 165 | 174 | 182 | 225 | 300 | 468 | 565 | 607 | 899 |
| 2026-04-17 07:30 | 4.47 | 420 | 899 (2022) | 165 (2024) | 367 | 165 | 174 | 182 | 225 | 300 | 468 | 565 | 607 | 899 |
| 2026-04-17 06:30 | 4.48 | 425 | 899 (2022) | 165 (2024) | 367 | 165 | 174 | 182 | 225 | 300 | 468 | 565 | 607 | 899 |
| 2026-04-17 05:30 | 4.49 | 430 | 899 (2022) | 165 (2024) | 367 | 165 | 174 | 182 | 225 | 300 | 468 | 565 | 607 | 899 |
| 2026-04-17 04:30 | 4.48 | 425 | 899 (2022) | 165 (2024) | 367 | 165 | 174 | 182 | 225 | 300 | 468 | 565 | 607 | 899 |
| 2026-04-17 03:30 | 4.49 | 430 | 899 (2022) | 165 (2024) | 367 | 165 | 174 | 182 | 225 | 300 | 468 | 565 | 607 | 899 |
| 2026-04-17 02:30 | 4.49 | 430 | 899 (2022) | 165 (2024) | 367 | 165 | 174 | 182 | 225 | 300 | 468 | 565 | 607 | 899 |
| 2026-04-17 01:30 | 4.48 | 425 | 899 (2022) | 165 (2024) | 367 | 165 | 174 | 182 | 225 | 300 | 468 | 565 | 607 | 899 |
| 2026-04-17 00:30 | 4.46 | 416 | 899 (2022) | 165 (2024) | 367 | 165 | 174 | 182 | 225 | 300 | 468 | 565 | 607 | 899 |
| 2026-04-16 23:30 | 4.43 | 402 | 899 (2022) | 165 (2024) | 367 | 165 | 174 | 182 | 225 | 300 | 468 | 565 | 607 | 899 |
| 2026-04-16 22:30 | 4.40 | 389 | 1180 (2022) | 174 (2024) | 442 | 174 | 182 | 210 | 239 | 300 | 662 | 688 | 850 | 1180 |
| 2026-04-16 21:30 | 4.35 | 367 | 1180 (2022) | 174 (2024) | 442 | 174 | 182 | 210 | 239 | 300 | 662 | 688 | 850 | 1180 |
| 2026-04-16 20:30 | 4.30 | 345 | 1180 (2022) | 174 (2024) | 442 | 174 | 182 | 210 | 239 | 300 | 662 | 688 | 850 | 1180 |
| 2026-04-16 19:30 | 4.23 | 321 | 1180 (2022) | 174 (2024) | 442 | 174 | 182 | 210 | 239 | 300 | 662 | 688 | 850 | 1180 |
| 2026-04-16 18:30 | 4.21 | 312 | 1180 (2022) | 174 (2024) | 442 | 174 | 182 | 210 | 239 | 300 | 662 | 688 | 850 | 1180 |
| 2026-04-16 17:30 | 4.19 | 305 | 1180 (2022) | 174 (2024) | 442 | 174 | 182 | 210 | 239 | 300 | 662 | 688 | 850 | 1180 |
| 2026-04-16 16:30 | 4.19 | 305 | 1180 (2022) | 174 (2024) | 442 | 174 | 182 | 210 | 239 | 300 | 662 | 688 | 850 | 1180 |
| 2026-04-16 15:30 | 4.18 | 301 | 1180 (2022) | 174 (2024) | 442 | 174 | 182 | 210 | 239 | 300 | 662 | 688 | 850 | 1180 |
| 2026-04-16 14:30 | 4.16 | 293 | 1180 (2022) | 174 (2024) | 442 | 174 | 182 | 210 | 239 | 300 | 662 | 688 | 850 | 1180 |
| 2026-04-16 13:30 | 4.13 | 281 | 1180 (2022) | 174 (2024) | 442 | 174 | 182 | 210 | 239 | 300 | 662 | 688 | 850 | 1180 |
| 2026-04-16 12:30 | 4.11 | 274 | 1180 (2022) | 174 (2024) | 442 | 174 | 182 | 210 | 239 | 300 | 662 | 688 | 850 | 1180 |
| 2026-04-16 11:30 | 4.09 | 266 | 1180 (2022) | 174 (2024) | 442 | 174 | 182 | 210 | 239 | 300 | 662 | 688 | 850 | 1180 |
| 2026-04-16 10:30 | 4.07 | 259 | 1180 (2022) | 174 (2024) | 442 | 174 | 182 | 210 | 239 | 300 | 662 | 688 | 850 | 1180 |
| 2026-04-16 09:30 | 4.06 | 255 | 1180 (2022) | 174 (2024) | 442 | 174 | 182 | 210 | 239 | 300 | 662 | 688 | 850 | 1180 |
| 2026-04-16 08:30 | 4.05 | 252 | 1180 (2022) | 174 (2024) | 442 | 174 | 182 | 210 | 239 | 300 | 662 | 688 | 850 | 1180 |
| 2026-04-16 07:30 | 4.03 | 244 | 1180 (2022) | 174 (2024) | 442 | 174 | 182 | 210 | 239 | 300 | 662 | 688 | 850 | 1180 |
| 2026-04-16 06:30 | 4.00 | 234 | 1180 (2022) | 174 (2024) | 442 | 174 | 182 | 210 | 239 | 300 | 662 | 688 | 850 | 1180 |
| 2026-04-16 05:30 | 3.94 | 217 | 1180 (2022) | 174 (2024) | 442 | 174 | 182 | 210 | 239 | 300 | 662 | 688 | 850 | 1180 |
| 2026-04-16 04:30 | 3.92 | 211 | 1180 (2022) | 174 (2024) | 442 | 174 | 182 | 210 | 239 | 300 | 662 | 688 | 850 | 1180 |
| 2026-04-16 03:30 | 3.90 | 206 | 1180 (2022) | 174 (2024) | 442 | 174 | 182 | 210 | 239 | 300 | 662 | 688 | 850 | 1180 |
| 2026-04-16 02:30 | 3.88 | 201 | 1180 (2022) | 174 (2024) | 442 | 174 | 182 | 210 | 239 | 300 | 662 | 688 | 850 | 1180 |
| 2026-04-16 01:30 | 3.86 | 196 | 1180 (2022) | 174 (2024) | 442 | 174 | 182 | 210 | 239 | 300 | 662 | 688 | 850 | 1180 |
| 2026-04-16 00:30 | 3.85 | 193 | 1180 (2022) | 174 (2024) | 442 | 174 | 182 | 210 | 239 | 300 | 662 | 688 | 850 | 1180 |
| 2026-04-15 23:30 | 3.70 | 158 | 1180 (2022) | 174 (2024) | 442 | 174 | 182 | 210 | 239 | 300 | 662 | 688 | 850 | 1180 |
| 2026-04-15 22:30 | 3.71 | 160 | 1680 (2007) | 139 (2012) | 487 | 139 | 183 | 196 | 253 | 313 | 589 | 819 | 1070 | 1680 |
| 2026-04-15 21:30 | 3.70 | 158 | 1680 (2007) | 139 (2012) | 487 | 139 | 183 | 196 | 253 | 313 | 589 | 819 | 1070 | 1680 |
| 2026-04-15 20:30 | 3.67 | 151 | 1680 (2007) | 139 (2012) | 487 | 139 | 183 | 196 | 253 | 313 | 589 | 819 | 1070 | 1680 |
| 2026-04-15 19:30 | 3.67 | 151 | 1680 (2007) | 139 (2012) | 487 | 139 | 183 | 196 | 253 | 313 | 589 | 819 | 1070 | 1680 |
| 2026-04-15 18:30 | 3.67 | 151 | 1680 (2007) | 139 (2012) | 487 | 139 | 183 | 196 | 253 | 313 | 589 | 819 | 1070 | 1680 |
| 2026-04-15 17:30 | 3.66 | 149 | 1680 (2007) | 139 (2012) | 487 | 139 | 183 | 196 | 253 | 313 | 589 | 819 | 1070 | 1680 |
| 2026-04-15 16:30 | 3.66 | 149 | 1680 (2007) | 139 (2012) | 487 | 139 | 183 | 196 | 253 | 313 | 589 | 819 | 1070 | 1680 |
| 2026-04-15 15:30 | 3.67 | 151 | 1680 (2007) | 139 (2012) | 487 | 139 | 183 | 196 | 253 | 313 | 589 | 819 | 1070 | 1680 |
| 2026-04-15 14:30 | 3.67 | 151 | 1680 (2007) | 139 (2012) | 487 | 139 | 183 | 196 | 253 | 313 | 589 | 819 | 1070 | 1680 |
| 2026-04-15 13:30 | 3.67 | 151 | 1680 (2007) | 139 (2012) | 487 | 139 | 183 | 196 | 253 | 313 | 589 | 819 | 1070 | 1680 |
| 2026-04-15 12:30 | 3.67 | 151 | 1680 (2007) | 139 (2012) | 487 | 139 | 183 | 196 | 253 | 313 | 589 | 819 | 1070 | 1680 |
| 2026-04-15 11:30 | 3.67 | 151 | 1680 (2007) | 139 (2012) | 487 | 139 | 183 | 196 | 253 | 313 | 589 | 819 | 1070 | 1680 |
| 2026-04-15 10:30 | 3.67 | 151 | 1680 (2007) | 139 (2012) | 487 | 139 | 183 | 196 | 253 | 313 | 589 | 819 | 1070 | 1680 |
| 2026-04-15 09:30 | 3.66 | 149 | 1680 (2007) | 139 (2012) | 487 | 139 | 183 | 196 | 253 | 313 | 589 | 819 | 1070 | 1680 |
| 2026-04-15 08:30 | 3.65 | 147 | 1680 (2007) | 139 (2012) | 487 | 139 | 183 | 196 | 253 | 313 | 589 | 819 | 1070 | 1680 |
| 2026-04-15 07:30 | 3.65 | 147 | 1680 (2007) | 139 (2012) | 487 | 139 | 183 | 196 | 253 | 313 | 589 | 819 | 1070 | 1680 |
| 2026-04-15 06:30 | 3.66 | 149 | 1680 (2007) | 139 (2012) | 487 | 139 | 183 | 196 | 253 | 313 | 589 | 819 | 1070 | 1680 |
| 2026-04-15 05:30 | 3.66 | 149 | 1680 (2007) | 139 (2012) | 487 | 139 | 183 | 196 | 253 | 313 | 589 | 819 | 1070 | 1680 |
| 2026-04-15 04:30 | 3.66 | 149 | 1680 (2007) | 139 (2012) | 487 | 139 | 183 | 196 | 253 | 313 | 589 | 819 | 1070 | 1680 |
| 2026-04-15 03:30 | 3.66 | 149 | 1680 (2007) | 139 (2012) | 487 | 139 | 183 | 196 | 253 | 313 | 589 | 819 | 1070 | 1680 |
| 2026-04-15 02:30 | 3.66 | 149 | 1680 (2007) | 139 (2012) | 487 | 139 | 183 | 196 | 253 | 313 | 589 | 819 | 1070 | 1680 |
| 2026-04-15 01:30 | 3.66 | 149 | 1680 (2007) | 139 (2012) | 487 | 139 | 183 | 196 | 253 | 313 | 589 | 819 | 1070 | 1680 |
| 2026-04-15 00:30 | 3.66 | 149 | 1680 (2007) | 139 (2012) | 487 | 139 | 183 | 196 | 253 | 313 | 589 | 819 | 1070 | 1680 |
| 2026-04-14 23:30 | 3.66 | 149 | 1680 (2007) | 139 (2012) | 487 | 139 | 183 | 196 | 253 | 313 | 589 | 819 | 1070 | 1680 |
| 2026-04-14 22:30 | 3.66 | 149 | 2400 (2007) | 136 (2012) | 616 | 136 | 195 | 202 | 215 | 342 | 776 | 918 | 2390 | 2400 |
| 2026-04-14 21:30 | 3.66 | 149 | 2400 (2007) | 136 (2012) | 616 | 136 | 195 | 202 | 215 | 342 | 776 | 918 | 2390 | 2400 |
| 2026-04-14 20:30 | 3.67 | 151 | 2400 (2007) | 136 (2012) | 616 | 136 | 195 | 202 | 215 | 342 | 776 | 918 | 2390 | 2400 |
| 2026-04-14 19:30 | 3.67 | 151 | 2400 (2007) | 136 (2012) | 616 | 136 | 195 | 202 | 215 | 342 | 776 | 918 | 2390 | 2400 |
| 2026-04-14 18:30 | 3.67 | 151 | 2400 (2007) | 136 (2012) | 616 | 136 | 195 | 202 | 215 | 342 | 776 | 918 | 2390 | 2400 |
| 2026-04-14 17:30 | 3.67 | 151 | 2400 (2007) | 136 (2012) | 616 | 136 | 195 | 202 | 215 | 342 | 776 | 918 | 2390 | 2400 |
| 2026-04-14 16:30 | 3.67 | 151 | 2400 (2007) | 136 (2012) | 616 | 136 | 195 | 202 | 215 | 342 | 776 | 918 | 2390 | 2400 |
| 2026-04-14 15:30 | 3.68 | 153 | 2400 (2007) | 136 (2012) | 616 | 136 | 195 | 202 | 215 | 342 | 776 | 918 | 2390 | 2400 |
| 2026-04-14 14:30 | 3.68 | 153 | 2400 (2007) | 136 (2012) | 616 | 136 | 195 | 202 | 215 | 342 | 776 | 918 | 2390 | 2400 |
| 2026-04-14 13:30 | 3.68 | 153 | 2400 (2007) | 136 (2012) | 616 | 136 | 195 | 202 | 215 | 342 | 776 | 918 | 2390 | 2400 |
| 2026-04-14 12:30 | 3.68 | 153 | 2400 (2007) | 136 (2012) | 616 | 136 | 195 | 202 | 215 | 342 | 776 | 918 | 2390 | 2400 |
| 2026-04-14 11:30 | 3.68 | 153 | 2400 (2007) | 136 (2012) | 616 | 136 | 195 | 202 | 215 | 342 | 776 | 918 | 2390 | 2400 |
| 2026-04-14 09:30 | 3.68 | 153 | 2400 (2007) | 136 (2012) | 616 | 136 | 195 | 202 | 215 | 342 | 776 | 918 | 2390 | 2400 |
| 2026-04-14 08:30 | 3.69 | 156 | 2400 (2007) | 136 (2012) | 616 | 136 | 195 | 202 | 215 | 342 | 776 | 918 | 2390 | 2400 |
| 2026-04-14 07:30 | 3.69 | 156 | 2400 (2007) | 136 (2012) | 616 | 136 | 195 | 202 | 215 | 342 | 776 | 918 | 2390 | 2400 |
| 2026-04-14 06:30 | 3.69 | 156 | 2400 (2007) | 136 (2012) | 616 | 136 | 195 | 202 | 215 | 342 | 776 | 918 | 2390 | 2400 |
| 2026-04-14 05:30 | 3.69 | 156 | 2400 (2007) | 136 (2012) | 616 | 136 | 195 | 202 | 215 | 342 | 776 | 918 | 2390 | 2400 |
| 2026-04-14 04:30 | 3.69 | 156 | 2400 (2007) | 136 (2012) | 616 | 136 | 195 | 202 | 215 | 342 | 776 | 918 | 2390 | 2400 |
| 2026-04-14 03:30 | 3.69 | 156 | 2400 (2007) | 136 (2012) | 616 | 136 | 195 | 202 | 215 | 342 | 776 | 918 | 2390 | 2400 |
| 2026-04-14 02:30 | 3.69 | 156 | 2400 (2007) | 136 (2012) | 616 | 136 | 195 | 202 | 215 | 342 | 776 | 918 | 2390 | 2400 |
| 2026-04-14 01:30 | 3.70 | 158 | 2400 (2007) | 136 (2012) | 616 | 136 | 195 | 202 | 215 | 342 | 776 | 918 | 2390 | 2400 |
| 2026-04-14 00:30 | 3.70 | 158 | 2400 (2007) | 136 (2012) | 616 | 136 | 195 | 202 | 215 | 342 | 776 | 918 | 2390 | 2400 |
| 2026-04-13 23:30 | 3.70 | 158 | 2400 (2007) | 136 (2012) | 616 | 136 | 195 | 202 | 215 | 342 | 776 | 918 | 2390 | 2400 |
| 2026-04-13 22:30 | 3.70 | 158 | 2250 (2022) | 123 (2012) | 453 | 123 | 169 | 209 | 215 | 335 | 436 | 485 | 805 | 2250 |
| 2026-04-13 21:30 | 3.70 | 158 | 2250 (2022) | 123 (2012) | 453 | 123 | 169 | 209 | 215 | 335 | 436 | 485 | 805 | 2250 |
| 2026-04-13 20:30 | 3.70 | 158 | 2250 (2022) | 123 (2012) | 453 | 123 | 169 | 209 | 215 | 335 | 436 | 485 | 805 | 2250 |
| 2026-04-13 19:30 | 3.70 | 158 | 2250 (2022) | 123 (2012) | 453 | 123 | 169 | 209 | 215 | 335 | 436 | 485 | 805 | 2250 |
| 2026-04-13 18:30 | 3.71 | 160 | 2250 (2022) | 123 (2012) | 453 | 123 | 169 | 209 | 215 | 335 | 436 | 485 | 805 | 2250 |
| 2026-04-13 17:30 | 3.70 | 158 | 2250 (2022) | 123 (2012) | 453 | 123 | 169 | 209 | 215 | 335 | 436 | 485 | 805 | 2250 |
| 2026-04-13 16:30 | 3.71 | 160 | 2250 (2022) | 123 (2012) | 453 | 123 | 169 | 209 | 215 | 335 | 436 | 485 | 805 | 2250 |
| 2026-04-13 15:30 | 3.71 | 160 | 2250 (2022) | 123 (2012) | 453 | 123 | 169 | 209 | 215 | 335 | 436 | 485 | 805 | 2250 |
| 2026-04-13 14:30 | 3.71 | 160 | 2250 (2022) | 123 (2012) | 453 | 123 | 169 | 209 | 215 | 335 | 436 | 485 | 805 | 2250 |
| 2026-04-13 13:30 | 3.71 | 160 | 2250 (2022) | 123 (2012) | 453 | 123 | 169 | 209 | 215 | 335 | 436 | 485 | 805 | 2250 |
| 2026-04-13 12:30 | 3.72 | 162 | 2250 (2022) | 123 (2012) | 453 | 123 | 169 | 209 | 215 | 335 | 436 | 485 | 805 | 2250 |
| 2026-04-13 11:30 | 3.72 | 162 | 2250 (2022) | 123 (2012) | 453 | 123 | 169 | 209 | 215 | 335 | 436 | 485 | 805 | 2250 |
| 2026-04-13 10:30 | 3.72 | 162 | 2250 (2022) | 123 (2012) | 453 | 123 | 169 | 209 | 215 | 335 | 436 | 485 | 805 | 2250 |
| 2026-04-13 09:30 | 3.72 | 162 | 2250 (2022) | 123 (2012) | 453 | 123 | 169 | 209 | 215 | 335 | 436 | 485 | 805 | 2250 |
| 2026-04-13 08:30 | 3.72 | 162 | 2250 (2022) | 123 (2012) | 453 | 123 | 169 | 209 | 215 | 335 | 436 | 485 | 805 | 2250 |
| 2026-04-13 07:30 | 3.73 | 165 | 2250 (2022) | 123 (2012) | 453 | 123 | 169 | 209 | 215 | 335 | 436 | 485 | 805 | 2250 |
| 2026-04-13 06:30 | 3.72 | 162 | 2250 (2022) | 123 (2012) | 453 | 123 | 169 | 209 | 215 | 335 | 436 | 485 | 805 | 2250 |
| 2026-04-13 05:30 | 3.73 | 165 | 2250 (2022) | 123 (2012) | 453 | 123 | 169 | 209 | 215 | 335 | 436 | 485 | 805 | 2250 |
| 2026-04-13 04:30 | 3.73 | 165 | 2250 (2022) | 123 (2012) | 453 | 123 | 169 | 209 | 215 | 335 | 436 | 485 | 805 | 2250 |
| 2026-04-13 03:30 | 3.73 | 165 | 2250 (2022) | 123 (2012) | 453 | 123 | 169 | 209 | 215 | 335 | 436 | 485 | 805 | 2250 |
| 2026-04-13 02:30 | 3.73 | 165 | 2250 (2022) | 123 (2012) | 453 | 123 | 169 | 209 | 215 | 335 | 436 | 485 | 805 | 2250 |
| 2026-04-13 01:30 | 3.73 | 165 | 2250 (2022) | 123 (2012) | 453 | 123 | 169 | 209 | 215 | 335 | 436 | 485 | 805 | 2250 |
| 2026-04-13 00:30 | 3.73 | 165 | 2250 (2022) | 123 (2012) | 453 | 123 | 169 | 209 | 215 | 335 | 436 | 485 | 805 | 2250 |
| 2026-04-12 23:30 | 3.73 | 165 | 2250 (2022) | 123 (2012) | 453 | 123 | 169 | 209 | 215 | 335 | 436 | 485 | 805 | 2250 |
| 2026-04-12 22:30 | 3.73 | 165 | 1270 (2008) | 114 (2012) | 441 | 114 | 184 | 222 | 250 | 331 | 528 | 545 | 1230 | 1270 |
| 2026-04-12 21:30 | 3.73 | 165 | 1270 (2008) | 114 (2012) | 441 | 114 | 184 | 222 | 250 | 331 | 528 | 545 | 1230 | 1270 |
| 2026-04-12 20:30 | 3.73 | 165 | 1270 (2008) | 114 (2012) | 441 | 114 | 184 | 222 | 250 | 331 | 528 | 545 | 1230 | 1270 |
| 2026-04-12 19:30 | 3.73 | 165 | 1270 (2008) | 114 (2012) | 441 | 114 | 184 | 222 | 250 | 331 | 528 | 545 | 1230 | 1270 |
| 2026-04-12 18:30 | 3.73 | 165 | 1270 (2008) | 114 (2012) | 441 | 114 | 184 | 222 | 250 | 331 | 528 | 545 | 1230 | 1270 |
| 2026-04-12 17:30 | 3.73 | 165 | 1270 (2008) | 114 (2012) | 441 | 114 | 184 | 222 | 250 | 331 | 528 | 545 | 1230 | 1270 |
| 2026-04-12 16:30 | 3.73 | 165 | 1270 (2008) | 114 (2012) | 441 | 114 | 184 | 222 | 250 | 331 | 528 | 545 | 1230 | 1270 |
| 2026-04-12 15:30 | 3.73 | 165 | 1270 (2008) | 114 (2012) | 441 | 114 | 184 | 222 | 250 | 331 | 528 | 545 | 1230 | 1270 |
| 2026-04-12 14:30 | 3.74 | 167 | 1270 (2008) | 114 (2012) | 441 | 114 | 184 | 222 | 250 | 331 | 528 | 545 | 1230 | 1270 |
| 2026-04-12 13:30 | 3.74 | 167 | 1270 (2008) | 114 (2012) | 441 | 114 | 184 | 222 | 250 | 331 | 528 | 545 | 1230 | 1270 |
| 2026-04-12 12:30 | 3.73 | 165 | 1270 (2008) | 114 (2012) | 441 | 114 | 184 | 222 | 250 | 331 | 528 | 545 | 1230 | 1270 |
| 2026-04-12 11:30 | 3.74 | 167 | 1270 (2008) | 114 (2012) | 441 | 114 | 184 | 222 | 250 | 331 | 528 | 545 | 1230 | 1270 |
| 2026-04-12 10:30 | 3.74 | 167 | 1270 (2008) | 114 (2012) | 441 | 114 | 184 | 222 | 250 | 331 | 528 | 545 | 1230 | 1270 |
| 2026-04-12 09:30 | 3.73 | 165 | 1270 (2008) | 114 (2012) | 441 | 114 | 184 | 222 | 250 | 331 | 528 | 545 | 1230 | 1270 |
| 2026-04-12 08:30 | 3.73 | 165 | 1270 (2008) | 114 (2012) | 441 | 114 | 184 | 222 | 250 | 331 | 528 | 545 | 1230 | 1270 |
| 2026-04-12 07:30 | 3.74 | 167 | 1270 (2008) | 114 (2012) | 441 | 114 | 184 | 222 | 250 | 331 | 528 | 545 | 1230 | 1270 |
| 2026-04-12 06:30 | 3.73 | 165 | 1270 (2008) | 114 (2012) | 441 | 114 | 184 | 222 | 250 | 331 | 528 | 545 | 1230 | 1270 |
| 2026-04-12 05:30 | 3.73 | 165 | 1270 (2008) | 114 (2012) | 441 | 114 | 184 | 222 | 250 | 331 | 528 | 545 | 1230 | 1270 |
| 2026-04-12 04:30 | 3.73 | 165 | 1270 (2008) | 114 (2012) | 441 | 114 | 184 | 222 | 250 | 331 | 528 | 545 | 1230 | 1270 |
| 2026-04-12 03:30 | 3.74 | 167 | 1270 (2008) | 114 (2012) | 441 | 114 | 184 | 222 | 250 | 331 | 528 | 545 | 1230 | 1270 |
| 2026-04-12 02:30 | 3.73 | 165 | 1270 (2008) | 114 (2012) | 441 | 114 | 184 | 222 | 250 | 331 | 528 | 545 | 1230 | 1270 |
| 2026-04-12 01:30 | 3.74 | 167 | 1270 (2008) | 114 (2012) | 441 | 114 | 184 | 222 | 250 | 331 | 528 | 545 | 1230 | 1270 |
| 2026-04-12 00:30 | 3.74 | 167 | 1270 (2008) | 114 (2012) | 441 | 114 | 184 | 222 | 250 | 331 | 528 | 545 | 1230 | 1270 |
| 2026-04-11 23:30 | 3.74 | 167 | 1270 (2008) | 114 (2012) | 441 | 114 | 184 | 222 | 250 | 331 | 528 | 545 | 1230 | 1270 |
| 2026-04-11 22:30 | 3.74 | 167 | 3890 (2008) | 117 (2012) | 570 | 117 | 199 | 209 | 211 | 304 | 531 | 583 | 890 | 3890 |
| 2026-04-11 21:30 | 3.74 | 167 | 3890 (2008) | 117 (2012) | 570 | 117 | 199 | 209 | 211 | 304 | 531 | 583 | 890 | 3890 |
| 2026-04-11 20:30 | 3.75 | 169 | 3890 (2008) | 117 (2012) | 570 | 117 | 199 | 209 | 211 | 304 | 531 | 583 | 890 | 3890 |
| 2026-04-11 19:30 | 3.75 | 169 | 3890 (2008) | 117 (2012) | 570 | 117 | 199 | 209 | 211 | 304 | 531 | 583 | 890 | 3890 |
| 2026-04-11 18:30 | 3.75 | 169 | 3890 (2008) | 117 (2012) | 570 | 117 | 199 | 209 | 211 | 304 | 531 | 583 | 890 | 3890 |
| 2026-04-11 17:30 | 3.75 | 169 | 3890 (2008) | 117 (2012) | 570 | 117 | 199 | 209 | 211 | 304 | 531 | 583 | 890 | 3890 |
| 2026-04-11 16:30 | 3.75 | 169 | 3890 (2008) | 117 (2012) | 570 | 117 | 199 | 209 | 211 | 304 | 531 | 583 | 890 | 3890 |
| 2026-04-11 15:30 | 3.75 | 169 | 3890 (2008) | 117 (2012) | 570 | 117 | 199 | 209 | 211 | 304 | 531 | 583 | 890 | 3890 |
| 2026-04-11 14:30 | 3.75 | 169 | 3890 (2008) | 117 (2012) | 570 | 117 | 199 | 209 | 211 | 304 | 531 | 583 | 890 | 3890 |
| 2026-04-11 13:30 | 3.75 | 169 | 3890 (2008) | 117 (2012) | 570 | 117 | 199 | 209 | 211 | 304 | 531 | 583 | 890 | 3890 |
| 2026-04-11 12:30 | 3.76 | 172 | 3890 (2008) | 117 (2012) | 570 | 117 | 199 | 209 | 211 | 304 | 531 | 583 | 890 | 3890 |
| 2026-04-11 11:30 | 3.76 | 172 | 3890 (2008) | 117 (2012) | 570 | 117 | 199 | 209 | 211 | 304 | 531 | 583 | 890 | 3890 |
| 2026-04-11 10:30 | 3.76 | 172 | 3890 (2008) | 117 (2012) | 570 | 117 | 199 | 209 | 211 | 304 | 531 | 583 | 890 | 3890 |
| 2026-04-11 09:30 | 3.76 | 172 | 3890 (2008) | 117 (2012) | 570 | 117 | 199 | 209 | 211 | 304 | 531 | 583 | 890 | 3890 |
| 2026-04-11 08:30 | 3.76 | 172 | 3890 (2008) | 117 (2012) | 570 | 117 | 199 | 209 | 211 | 304 | 531 | 583 | 890 | 3890 |
| 2026-04-11 07:30 | 3.76 | 172 | 3890 (2008) | 117 (2012) | 570 | 117 | 199 | 209 | 211 | 304 | 531 | 583 | 890 | 3890 |
| 2026-04-11 06:30 | 3.76 | 172 | 3890 (2008) | 117 (2012) | 570 | 117 | 199 | 209 | 211 | 304 | 531 | 583 | 890 | 3890 |
| 2026-04-11 05:30 | 3.76 | 172 | 3890 (2008) | 117 (2012) | 570 | 117 | 199 | 209 | 211 | 304 | 531 | 583 | 890 | 3890 |
| 2026-04-11 04:30 | 3.76 | 172 | 3890 (2008) | 117 (2012) | 570 | 117 | 199 | 209 | 211 | 304 | 531 | 583 | 890 | 3890 |
| 2026-04-11 03:30 | 3.77 | 174 | 3890 (2008) | 117 (2012) | 570 | 117 | 199 | 209 | 211 | 304 | 531 | 583 | 890 | 3890 |
| 2026-04-11 02:30 | 3.77 | 174 | 3890 (2008) | 117 (2012) | 570 | 117 | 199 | 209 | 211 | 304 | 531 | 583 | 890 | 3890 |
| 2026-04-11 01:30 | 3.76 | 172 | 3890 (2008) | 117 (2012) | 570 | 117 | 199 | 209 | 211 | 304 | 531 | 583 | 890 | 3890 |
| 2026-04-11 00:30 | 3.77 | 174 | 3890 (2008) | 117 (2012) | 570 | 117 | 199 | 209 | 211 | 304 | 531 | 583 | 890 | 3890 |
| 2026-04-10 23:30 | 3.78 | 176 | 3890 (2008) | 117 (2012) | 570 | 117 | 199 | 209 | 211 | 304 | 531 | 583 | 890 | 3890 |
| 2026-04-10 22:30 | 3.78 | 176 | 4850 (2008) | 122 (2012) | 570 | 122 | 152 | 180 | 188 | 318 | 438 | 522 | 945 | 4850 |
| 2026-04-10 21:30 | 3.78 | 176 | 4850 (2008) | 122 (2012) | 570 | 122 | 152 | 180 | 188 | 318 | 438 | 522 | 945 | 4850 |
| 2026-04-10 20:30 | 3.78 | 176 | 4850 (2008) | 122 (2012) | 570 | 122 | 152 | 180 | 188 | 318 | 438 | 522 | 945 | 4850 |
| 2026-04-10 19:30 | 3.78 | 176 | 4850 (2008) | 122 (2012) | 570 | 122 | 152 | 180 | 188 | 318 | 438 | 522 | 945 | 4850 |
| 2026-04-10 18:30 | 3.79 | 179 | 4850 (2008) | 122 (2012) | 570 | 122 | 152 | 180 | 188 | 318 | 438 | 522 | 945 | 4850 |
| 2026-04-10 17:30 | 3.78 | 176 | 4850 (2008) | 122 (2012) | 570 | 122 | 152 | 180 | 188 | 318 | 438 | 522 | 945 | 4850 |
| 2026-04-10 16:30 | 3.79 | 179 | 4850 (2008) | 122 (2012) | 570 | 122 | 152 | 180 | 188 | 318 | 438 | 522 | 945 | 4850 |
| 2026-04-10 15:30 | 3.79 | 179 | 4850 (2008) | 122 (2012) | 570 | 122 | 152 | 180 | 188 | 318 | 438 | 522 | 945 | 4850 |
| 2026-04-10 14:30 | 3.79 | 179 | 4850 (2008) | 122 (2012) | 570 | 122 | 152 | 180 | 188 | 318 | 438 | 522 | 945 | 4850 |
| 2026-04-10 13:30 | 3.79 | 179 | 4850 (2008) | 122 (2012) | 570 | 122 | 152 | 180 | 188 | 318 | 438 | 522 | 945 | 4850 |
| 2026-04-10 12:30 | 3.79 | 179 | 4850 (2008) | 122 (2012) | 570 | 122 | 152 | 180 | 188 | 318 | 438 | 522 | 945 | 4850 |
| 2026-04-10 11:30 | 3.79 | 179 | 4850 (2008) | 122 (2012) | 570 | 122 | 152 | 180 | 188 | 318 | 438 | 522 | 945 | 4850 |
| 2026-04-10 10:30 | 3.80 | 181 | 4850 (2008) | 122 (2012) | 570 | 122 | 152 | 180 | 188 | 318 | 438 | 522 | 945 | 4850 |
| 2026-04-10 09:30 | 3.80 | 181 | 4850 (2008) | 122 (2012) | 570 | 122 | 152 | 180 | 188 | 318 | 438 | 522 | 945 | 4850 |
| 2026-04-10 08:30 | 3.80 | 181 | 4850 (2008) | 122 (2012) | 570 | 122 | 152 | 180 | 188 | 318 | 438 | 522 | 945 | 4850 |
| 2026-04-10 07:30 | 3.81 | 184 | 4850 (2008) | 122 (2012) | 570 | 122 | 152 | 180 | 188 | 318 | 438 | 522 | 945 | 4850 |
| 2026-04-10 06:30 | 3.81 | 184 | 4850 (2008) | 122 (2012) | 570 | 122 | 152 | 180 | 188 | 318 | 438 | 522 | 945 | 4850 |
| 2026-04-10 05:30 | 3.81 | 184 | 4850 (2008) | 122 (2012) | 570 | 122 | 152 | 180 | 188 | 318 | 438 | 522 | 945 | 4850 |
| 2026-04-10 04:30 | 3.81 | 184 | 4850 (2008) | 122 (2012) | 570 | 122 | 152 | 180 | 188 | 318 | 438 | 522 | 945 | 4850 |
| 2026-04-10 03:30 | 3.82 | 186 | 4850 (2008) | 122 (2012) | 570 | 122 | 152 | 180 | 188 | 318 | 438 | 522 | 945 | 4850 |
| 2026-04-10 02:30 | 3.82 | 186 | 4850 (2008) | 122 (2012) | 570 | 122 | 152 | 180 | 188 | 318 | 438 | 522 | 945 | 4850 |
| 2026-04-10 01:30 | 3.82 | 186 | 4850 (2008) | 122 (2012) | 570 | 122 | 152 | 180 | 188 | 318 | 438 | 522 | 945 | 4850 |
| 2026-04-10 00:30 | 3.83 | 188 | 4850 (2008) | 122 (2012) | 570 | 122 | 152 | 180 | 188 | 318 | 438 | 522 | 945 | 4850 |
| 2026-04-09 23:30 | 3.82 | 186 | 4850 (2008) | 122 (2012) | 570 | 122 | 152 | 180 | 188 | 318 | 438 | 522 | 945 | 4850 |
A total of 737 rows are displayed for years 2007 through 2025.